PORTS® Data Listing: 8578240 Piney Point, MD

CO-OPS RAW PORTS DATA

************************      PRELIMINARY DATA      ************************** 

     THIS RAW DATA HAS NOT BEEN SUBJECT TO THE NATIONAL OCEAN SERVICE'S        
     QUALITY CONTROL OR QUALITY ASSURANCE PROCEDURES AND DOES NOT MEET         
     THE CRITERIA AND STANDARDS OF OFFICIAL NATIONAL OCEAN SERVICE             
     DATA.  IT IS RELEASED FOR LIMITED PUBLIC USE AS PRELIMINARY DATA TO       
     BE USED ONLY WITH APPROPRIATE CAUTION.                                    

************************      PRELIMINARY DATA      ************************** 


       CD   -   Calendar date
       T    -   Time
       TZ   -   Timezone
       PW   -   Predicted water level (feet above MLLW)
       OW   -   Observed water level (feet above MLLW)
       WS   -   Wind speed (knots)
       WD   -   Wind direction (degrees true)
       WG   -   Wind gust (knots)
       AT   -   Air temperature (degrees farenheit)
       WT   -   Water temperature (degrees farenheit)
       AP   -   Air pressure (millibars)
       SA   -   Salinty (PSU - Practical Salinity Units)
       SG   -   Specific gravity
       RH   -   Relative humidity
       AG   -   Air gap (feet)
       VI   -   Visibility (nautical miles)

       ** NOTE **
       A variable that has its data fields filled with "9"s, indicates that
       data was not collected for that sample period.
       **********


STATION NAME: Piney Point (8578240)
****************************************************************************************************
    CD       T    TZ    PW     OW    WS   WD   WG    AT    WT    AP    SA    SG     RH    AG   VI
****************************************************************************************************
2019/11/19 07:54 EST  -99.99 -99.99    9  330   13 -99.9 -99.9 -999.9 -9.9 -9.999 -99.9 -99.99 -9.99
2019/11/19 08:00 EST  -99.99 -99.99    9  325   12 -99.9 -99.9 -999.9 -9.9 -9.999 -99.9 -99.99 -9.99
2019/11/19 08:06 EST  -99.99 -99.99    7  312   13 -99.9 -99.9 -999.9 -9.9 -9.999 -99.9 -99.99 -9.99
2019/11/19 08:12 EST  -99.99 -99.99    8  305   12 -99.9 -99.9 -999.9 -9.9 -9.999 -99.9 -99.99 -9.99
2019/11/19 08:18 EST  -99.99 -99.99   10  299   13 -99.9 -99.9 -999.9 -9.9 -9.999 -99.9 -99.99 -9.99
2019/11/19 08:24 EST  -99.99 -99.99    9  302   11 -99.9 -99.9 -999.9 -9.9 -9.999 -99.9 -99.99 -9.99
2019/11/19 08:30 EST  -99.99 -99.99    7  264   11 -99.9 -99.9 -999.9 -9.9 -9.999 -99.9 -99.99 -9.99
2019/11/19 08:36 EST  -99.99 -99.99 -999 -999 -999 -99.9 -99.9 -999.9 -9.9 -9.999 -99.9 -99.99 -9.99
2019/11/19 08:42 EST  -99.99 -99.99    8  268   10 -99.9 -99.9 -999.9 -9.9 -9.999 -99.9 -99.99 -9.99
2019/11/19 08:48 EST  -99.99 -99.99    8  263   11 -99.9 -99.9 -999.9 -9.9 -9.999 -99.9 -99.99 -9.99
2019/11/19 08:54 EST  -99.99 -99.99    8  265   10 -99.9 -99.9 -999.9 -9.9 -9.999 -99.9 -99.99 -9.99
2019/11/19 09:00 EST  -99.99 -99.99    7  265    9 -99.9 -99.9 -999.9 -9.9 -9.999 -99.9 -99.99 -9.99
2019/11/19 09:06 EST  -99.99 -99.99    5  254    8 -99.9 -99.9 -999.9 -9.9 -9.999 -99.9 -99.99 -9.99
2019/11/19 09:12 EST  -99.99 -99.99    5  255    9 -99.9 -99.9 -999.9 -9.9 -9.999 -99.9 -99.99 -9.99
2019/11/19 09:18 EST  -99.99 -99.99    6  255   10 -99.9 -99.9 -999.9 -9.9 -9.999 -99.9 -99.99 -9.99
2019/11/19 09:24 EST  -99.99 -99.99    5  250    8 -99.9 -99.9 -999.9 -9.9 -9.999 -99.9 -99.99 -9.99
2019/11/19 09:30 EST  -99.99 -99.99    6  273    8 -99.9 -99.9 -999.9 -9.9 -9.999 -99.9 -99.99 -9.99
2019/11/19 09:36 EST  -99.99 -99.99    5  298    7 -99.9 -99.9 -999.9 -9.9 -9.999 -99.9 -99.99 -9.99
2019/11/19 09:42 EST  -99.99 -99.99    7  309    9 -99.9 -99.9 -999.9 -9.9 -9.999 -99.9 -99.99 -9.99
2019/11/19 09:48 EST  -99.99 -99.99    6  265    7 -99.9 -99.9 -999.9 -9.9 -9.999 -99.9 -99.99 -9.99
2019/11/19 09:54 EST  -99.99 -99.99    6  276    8 -99.9 -99.9 -999.9 -9.9 -9.999 -99.9 -99.99 -9.99
2019/11/19 10:00 EST  -99.99 -99.99    5  294    8 -99.9 -99.9 -999.9 -9.9 -9.999 -99.9 -99.99 -9.99
2019/11/19 10:06 EST  -99.99 -99.99    5  279    8 -99.9 -99.9 -999.9 -9.9 -9.999 -99.9 -99.99 -9.99
2019/11/19 10:12 EST  -99.99 -99.99    5  270    7 -99.9 -99.9 -999.9 -9.9 -9.999 -99.9 -99.99 -9.99
2019/11/19 10:18 EST  -99.99 -99.99    4  292    6 -99.9 -99.9 -999.9 -9.9 -9.999 -99.9 -99.99 -9.99
2019/11/19 10:24 EST  -99.99 -99.99    4  288    5 -99.9 -99.9 -999.9 -9.9 -9.999 -99.9 -99.99 -9.99
2019/11/19 10:30 EST  -99.99 -99.99    3  257    5 -99.9 -99.9 -999.9 -9.9 -9.999 -99.9 -99.99 -9.99
2019/11/19 10:36 EST  -99.99 -99.99    5  295    6 -99.9 -99.9 -999.9 -9.9 -9.999 -99.9 -99.99 -9.99
2019/11/19 10:42 EST  -99.99 -99.99    4  274    5 -99.9 -99.9 -999.9 -9.9 -9.999 -99.9 -99.99 -9.99
2019/11/19 10:48 EST  -99.99 -99.99    4  294    5 -99.9 -99.9 -999.9 -9.9 -9.999 -99.9 -99.99 -9.99
2019/11/19 10:54 EST  -99.99 -99.99    3  282    5 -99.9 -99.9 -999.9 -9.9 -9.999 -99.9 -99.99 -9.99
2019/11/19 11:00 EST  -99.99 -99.99    3  305    6 -99.9 -99.9 -999.9 -9.9 -9.999 -99.9 -99.99 -9.99
2019/11/19 11:06 EST  -99.99 -99.99    3  331    4 -99.9 -99.9 -999.9 -9.9 -9.999 -99.9 -99.99 -9.99
2019/11/19 11:12 EST  -99.99 -99.99    2  346    4 -99.9 -99.9 -999.9 -9.9 -9.999 -99.9 -99.99 -9.99
2019/11/19 11:18 EST  -99.99 -99.99    2  347    4 -99.9 -99.9 -999.9 -9.9 -9.999 -99.9 -99.99 -9.99
2019/11/19 11:24 EST  -99.99 -99.99    3  333    3 -99.9 -99.9 -999.9 -9.9 -9.999 -99.9 -99.99 -9.99
2019/11/19 11:30 EST  -99.99 -99.99    4  345    4 -99.9 -99.9 -999.9 -9.9 -9.999 -99.9 -99.99 -9.99
2019/11/19 11:36 EST  -99.99 -99.99    4  332    5 -99.9 -99.9 -999.9 -9.9 -9.999 -99.9 -99.99 -9.99
2019/11/19 11:42 EST  -99.99 -99.99    4  341    5 -99.9 -99.9 -999.9 -9.9 -9.999 -99.9 -99.99 -9.99
2019/11/19 11:48 EST  -99.99 -99.99    6  340    7 -99.9 -99.9 -999.9 -9.9 -9.999 -99.9 -99.99 -9.99
2019/11/19 11:54 EST  -99.99 -99.99    5  337    6 -99.9 -99.9 -999.9 -9.9 -9.999 -99.9 -99.99 -9.99
2019/11/19 12:00 EST  -99.99 -99.99    5  319    6 -99.9 -99.9 -999.9 -9.9 -9.999 -99.9 -99.99 -9.99
2019/11/19 12:06 EST  -99.99 -99.99    5  322    6 -99.9 -99.9 -999.9 -9.9 -9.999 -99.9 -99.99 -9.99
2019/11/19 12:12 EST  -99.99 -99.99    5  318    7 -99.9 -99.9 -999.9 -9.9 -9.999 -99.9 -99.99 -9.99
2019/11/19 12:18 EST  -99.99 -99.99    6  334    7 -99.9 -99.9 -999.9 -9.9 -9.999 -99.9 -99.99 -9.99
2019/11/19 12:24 EST  -99.99 -99.99    6  330    7 -99.9 -99.9 -999.9 -9.9 -9.999 -99.9 -99.99 -9.99
2019/11/19 12:30 EST  -99.99 -99.99    5  333    7 -99.9 -99.9 -999.9 -9.9 -9.999 -99.9 -99.99 -9.99
2019/11/19 12:36 EST  -99.99 -99.99    6  331    7 -99.9 -99.9 -999.9 -9.9 -9.999 -99.9 -99.99 -9.99
2019/11/19 12:42 EST  -99.99 -99.99    7  338    8 -99.9 -99.9 -999.9 -9.9 -9.999 -99.9 -99.99 -9.99
2019/11/19 12:48 EST  -99.99 -99.99    9  340   10 -99.9 -99.9 -999.9 -9.9 -9.999 -99.9 -99.99 -9.99
2019/11/19 12:54 EST  -99.99 -99.99   10  345   11 -99.9 -99.9 -999.9 -9.9 -9.999 -99.9 -99.99 -9.99
2019/11/19 13:00 EST  -99.99 -99.99   10  337   11 -99.9 -99.9 -999.9 -9.9 -9.999 -99.9 -99.99 -9.99
2019/11/19 13:06 EST  -99.99 -99.99    9  334   10 -99.9 -99.9 -999.9 -9.9 -9.999 -99.9 -99.99 -9.99
2019/11/19 13:12 EST  -99.99 -99.99    8  333   10 -99.9 -99.9 -999.9 -9.9 -9.999 -99.9 -99.99 -9.99
2019/11/19 13:18 EST  -99.99 -99.99    8  323    9 -99.9 -99.9 -999.9 -9.9 -9.999 -99.9 -99.99 -9.99
2019/11/19 13:24 EST  -99.99 -99.99    8  321    9 -99.9 -99.9 -999.9 -9.9 -9.999 -99.9 -99.99 -9.99
2019/11/19 13:30 EST  -99.99 -99.99    8  317    9 -99.9 -99.9 -999.9 -9.9 -9.999 -99.9 -99.99 -9.99
2019/11/19 13:36 EST  -99.99 -99.99    8  318    9 -99.9 -99.9 -999.9 -9.9 -9.999 -99.9 -99.99 -9.99
2019/11/19 13:42 EST  -99.99 -99.99    8  316    9 -99.9 -99.9 -999.9 -9.9 -9.999 -99.9 -99.99 -9.99
2019/11/19 13:48 EST  -99.99 -99.99   10  320   11 -99.9 -99.9 -999.9 -9.9 -9.999 -99.9 -99.99 -9.99
2019/11/19 13:54 EST  -99.99 -99.99   10  322   11 -99.9 -99.9 -999.9 -9.9 -9.999 -99.9 -99.99 -9.99
2019/11/19 14:00 EST  -99.99 -99.99   10  315   10 -99.9 -99.9 -999.9 -9.9 -9.999 -99.9 -99.99 -9.99
2019/11/19 14:06 EST  -99.99 -99.99    9  308   10 -99.9 -99.9 -999.9 -9.9 -9.999 -99.9 -99.99 -9.99
2019/11/19 14:12 EST  -99.99 -99.99   10  310   11 -99.9 -99.9 -999.9 -9.9 -9.999 -99.9 -99.99 -9.99
2019/11/19 14:18 EST  -99.99 -99.99    8  310    9 -99.9 -99.9 -999.9 -9.9 -9.999 -99.9 -99.99 -9.99
2019/11/19 14:24 EST  -99.99 -99.99    8  311   10 -99.9 -99.9 -999.9 -9.9 -9.999 -99.9 -99.99 -9.99
2019/11/19 14:30 EST  -99.99 -99.99    9  319   10 -99.9 -99.9 -999.9 -9.9 -9.999 -99.9 -99.99 -9.99
2019/11/19 14:36 EST  -99.99 -99.99    7  318    9 -99.9 -99.9 -999.9 -9.9 -9.999 -99.9 -99.99 -9.99
2019/11/19 14:42 EST  -99.99 -99.99    7  315    9 -99.9 -99.9 -999.9 -9.9 -9.999 -99.9 -99.99 -9.99
2019/11/19 14:48 EST  -99.99 -99.99    6  309    8 -99.9 -99.9 -999.9 -9.9 -9.999 -99.9 -99.99 -9.99
2019/11/19 14:54 EST  -99.99 -99.99    6  312    7 -99.9 -99.9 -999.9 -9.9 -9.999 -99.9 -99.99 -9.99
2019/11/19 15:00 EST  -99.99 -99.99    6  324    7 -99.9 -99.9 -999.9 -9.9 -9.999 -99.9 -99.99 -9.99
2019/11/19 15:06 EST  -99.99 -99.99    6  327    7 -99.9 -99.9 -999.9 -9.9 -9.999 -99.9 -99.99 -9.99
2019/11/19 15:12 EST  -99.99 -99.99    7  328    7 -99.9 -99.9 -999.9 -9.9 -9.999 -99.9 -99.99 -9.99
2019/11/19 15:18 EST  -99.99 -99.99    8  331    8 -99.9 -99.9 -999.9 -9.9 -9.999 -99.9 -99.99 -9.99
2019/11/19 15:24 EST  -99.99 -99.99    6  335    8 -99.9 -99.9 -999.9 -9.9 -9.999 -99.9 -99.99 -9.99
2019/11/19 15:30 EST  -99.99 -99.99    6  334    7 -99.9 -99.9 -999.9 -9.9 -9.999 -99.9 -99.99 -9.99
2019/11/19 15:36 EST  -99.99 -99.99    6  334    7 -99.9 -99.9 -999.9 -9.9 -9.999 -99.9 -99.99 -9.99
2019/11/19 15:42 EST  -99.99 -99.99    7  327    8 -99.9 -99.9 -999.9 -9.9 -9.999 -99.9 -99.99 -9.99
2019/11/19 15:48 EST  -99.99 -99.99    7  326    8 -99.9 -99.9 -999.9 -9.9 -9.999 -99.9 -99.99 -9.99
2019/11/19 15:54 EST  -99.99 -99.99    7  322    8 -99.9 -99.9 -999.9 -9.9 -9.999 -99.9 -99.99 -9.99
2019/11/19 16:00 EST  -99.99 -99.99    8  326    9 -99.9 -99.9 -999.9 -9.9 -9.999 -99.9 -99.99 -9.99
2019/11/19 16:06 EST  -99.99 -99.99    7  321    9 -99.9 -99.9 -999.9 -9.9 -9.999 -99.9 -99.99 -9.99
2019/11/19 16:12 EST  -99.99 -99.99    6  322    7 -99.9 -99.9 -999.9 -9.9 -9.999 -99.9 -99.99 -9.99
2019/11/19 16:18 EST  -99.99 -99.99    6  325    7 -99.9 -99.9 -999.9 -9.9 -9.999 -99.9 -99.99 -9.99
2019/11/19 16:24 EST  -99.99 -99.99    5  327    7 -99.9 -99.9 -999.9 -9.9 -9.999 -99.9 -99.99 -9.99
2019/11/19 16:30 EST  -99.99 -99.99    5  327    6 -99.9 -99.9 -999.9 -9.9 -9.999 -99.9 -99.99 -9.99
2019/11/19 16:36 EST  -99.99 -99.99    6  328    7 -99.9 -99.9 -999.9 -9.9 -9.999 -99.9 -99.99 -9.99
2019/11/19 16:42 EST  -99.99 -99.99    6  328    7 -99.9 -99.9 -999.9 -9.9 -9.999 -99.9 -99.99 -9.99
2019/11/19 16:48 EST  -99.99 -99.99    6  325    7 -99.9 -99.9 -999.9 -9.9 -9.999 -99.9 -99.99 -9.99
2019/11/19 16:54 EST  -99.99 -99.99    5  321    6 -99.9 -99.9 -999.9 -9.9 -9.999 -99.9 -99.99 -9.99
2019/11/19 17:00 EST  -99.99 -99.99    5  318    6 -99.9 -99.9 -999.9 -9.9 -9.999 -99.9 -99.99 -9.99
2019/11/19 17:06 EST  -99.99 -99.99    5  322    6 -99.9 -99.9 -999.9 -9.9 -9.999 -99.9 -99.99 -9.99
2019/11/19 17:12 EST  -99.99 -99.99    5  323    5 -99.9 -99.9 -999.9 -9.9 -9.999 -99.9 -99.99 -9.99
2019/11/19 17:18 EST  -99.99 -99.99    5  324    5 -99.9 -99.9 -999.9 -9.9 -9.999 -99.9 -99.99 -9.99
2019/11/19 17:24 EST  -99.99 -99.99    4  329    5 -99.9 -99.9 -999.9 -9.9 -9.999 -99.9 -99.99 -9.99
2019/11/19 17:30 EST  -99.99 -99.99    4  330    4 -99.9 -99.9 -999.9 -9.9 -9.999 -99.9 -99.99 -9.99
2019/11/19 17:36 EST  -99.99 -99.99    4  319    4 -99.9 -99.9 -999.9 -9.9 -9.999 -99.9 -99.99 -9.99
2019/11/19 17:42 EST  -99.99 -99.99    4  321    4 -99.9 -99.9 -999.9 -9.9 -9.999 -99.9 -99.99 -9.99
2019/11/19 17:48 EST  -99.99 -99.99    4  320    5 -99.9 -99.9 -999.9 -9.9 -9.999 -99.9 -99.99 -9.99
2019/11/19 17:54 EST  -99.99 -99.99    5  313    5 -99.9 -99.9 -999.9 -9.9 -9.999 -99.9 -99.99 -9.99
2019/11/19 18:00 EST  -99.99 -99.99    5  311    6 -99.9 -99.9 -999.9 -9.9 -9.999 -99.9 -99.99 -9.99
2019/11/19 18:06 EST  -99.99 -99.99    4  304    5 -99.9 -99.9 -999.9 -9.9 -9.999 -99.9 -99.99 -9.99
2019/11/19 18:12 EST  -99.99 -99.99    4  314    5 -99.9 -99.9 -999.9 -9.9 -9.999 -99.9 -99.99 -9.99
2019/11/19 18:18 EST  -99.99 -99.99    4  312    5 -99.9 -99.9 -999.9 -9.9 -9.999 -99.9 -99.99 -9.99
2019/11/19 18:24 EST  -99.99 -99.99    3  277    4 -99.9 -99.9 -999.9 -9.9 -9.999 -99.9 -99.99 -9.99
2019/11/19 18:30 EST  -99.99 -99.99    2  249    4 -99.9 -99.9 -999.9 -9.9 -9.999 -99.9 -99.99 -9.99
2019/11/19 18:36 EST  -99.99 -99.99    2  256    3 -99.9 -99.9 -999.9 -9.9 -9.999 -99.9 -99.99 -9.99
2019/11/19 18:42 EST  -99.99 -99.99    2  275    3 -99.9 -99.9 -999.9 -9.9 -9.999 -99.9 -99.99 -9.99
2019/11/19 18:48 EST  -99.99 -99.99    2  266    3 -99.9 -99.9 -999.9 -9.9 -9.999 -99.9 -99.99 -9.99
2019/11/19 18:54 EST  -99.99 -99.99    3  279    4 -99.9 -99.9 -999.9 -9.9 -9.999 -99.9 -99.99 -9.99
2019/11/19 19:00 EST  -99.99 -99.99    2  276    3 -99.9 -99.9 -999.9 -9.9 -9.999 -99.9 -99.99 -9.99
2019/11/19 19:06 EST  -99.99 -99.99    2  274    3 -99.9 -99.9 -999.9 -9.9 -9.999 -99.9 -99.99 -9.99
2019/11/19 19:12 EST  -99.99 -99.99    3  266    3 -99.9 -99.9 -999.9 -9.9 -9.999 -99.9 -99.99 -9.99
2019/11/19 19:18 EST  -99.99 -99.99    3  273    3 -99.9 -99.9 -999.9 -9.9 -9.999 -99.9 -99.99 -9.99
2019/11/19 19:24 EST  -99.99 -99.99    3  284    3 -99.9 -99.9 -999.9 -9.9 -9.999 -99.9 -99.99 -9.99
2019/11/19 19:30 EST  -99.99 -99.99    4  292    4 -99.9 -99.9 -999.9 -9.9 -9.999 -99.9 -99.99 -9.99
2019/11/19 19:36 EST  -99.99 -99.99    4  296    4 -99.9 -99.9 -999.9 -9.9 -9.999 -99.9 -99.99 -9.99
2019/11/19 19:42 EST  -99.99 -99.99    3  315    4 -99.9 -99.9 -999.9 -9.9 -9.999 -99.9 -99.99 -9.99
2019/11/19 19:48 EST  -99.99 -99.99    3  312    3 -99.9 -99.9 -999.9 -9.9 -9.999 -99.9 -99.99 -9.99
2019/11/19 19:54 EST  -99.99 -99.99    3  278    3 -99.9 -99.9 -999.9 -9.9 -9.999 -99.9 -99.99 -9.99
2019/11/19 20:00 EST  -99.99 -99.99    3  268    4 -99.9 -99.9 -999.9 -9.9 -9.999 -99.9 -99.99 -9.99
2019/11/19 20:06 EST  -99.99 -99.99    4  268    4 -99.9 -99.9 -999.9 -9.9 -9.999 -99.9 -99.99 -9.99
2019/11/19 20:12 EST  -99.99 -99.99    4  268    5 -99.9 -99.9 -999.9 -9.9 -9.999 -99.9 -99.99 -9.99
2019/11/19 20:18 EST  -99.99 -99.99    4  270    5 -99.9 -99.9 -999.9 -9.9 -9.999 -99.9 -99.99 -9.99
2019/11/19 20:24 EST  -99.99 -99.99    4  279    5 -99.9 -99.9 -999.9 -9.9 -9.999 -99.9 -99.99 -9.99
2019/11/19 20:30 EST  -99.99 -99.99    4  284    5 -99.9 -99.9 -999.9 -9.9 -9.999 -99.9 -99.99 -9.99
2019/11/19 20:36 EST  -99.99 -99.99    3  278    4 -99.9 -99.9 -999.9 -9.9 -9.999 -99.9 -99.99 -9.99
2019/11/19 20:42 EST  -99.99 -99.99    4  267    4 -99.9 -99.9 -999.9 -9.9 -9.999 -99.9 -99.99 -9.99
2019/11/19 20:48 EST  -99.99 -99.99    5  274    5 -99.9 -99.9 -999.9 -9.9 -9.999 -99.9 -99.99 -9.99
2019/11/19 20:54 EST  -99.99 -99.99    6  265    7 -99.9 -99.9 -999.9 -9.9 -9.999 -99.9 -99.99 -9.99
2019/11/19 21:00 EST  -99.99 -99.99    5  275    7 -99.9 -99.9 -999.9 -9.9 -9.999 -99.9 -99.99 -9.99
2019/11/19 21:06 EST  -99.99 -99.99    4  291    6 -99.9 -99.9 -999.9 -9.9 -9.999 -99.9 -99.99 -9.99
2019/11/19 21:12 EST  -99.99 -99.99    4  276    6 -99.9 -99.9 -999.9 -9.9 -9.999 -99.9 -99.99 -9.99
2019/11/19 21:18 EST  -99.99 -99.99    4  278    6 -99.9 -99.9 -999.9 -9.9 -9.999 -99.9 -99.99 -9.99
2019/11/19 21:24 EST  -99.99 -99.99    4  291    5 -99.9 -99.9 -999.9 -9.9 -9.999 -99.9 -99.99 -9.99
2019/11/19 21:30 EST  -99.99 -99.99    3  318    4 -99.9 -99.9 -999.9 -9.9 -9.999 -99.9 -99.99 -9.99
2019/11/19 21:36 EST  -99.99 -99.99    3  318    4 -99.9 -99.9 -999.9 -9.9 -9.999 -99.9 -99.99 -9.99
2019/11/19 21:42 EST  -99.99 -99.99    3  331    4 -99.9 -99.9 -999.9 -9.9 -9.999 -99.9 -99.99 -9.99
2019/11/19 21:48 EST  -99.99 -99.99    3  341    4 -99.9 -99.9 -999.9 -9.9 -9.999 -99.9 -99.99 -9.99
2019/11/19 21:54 EST  -99.99 -99.99    3  350    4 -99.9 -99.9 -999.9 -9.9 -9.999 -99.9 -99.99 -9.99
2019/11/19 22:00 EST  -99.99 -99.99    3  341    4 -99.9 -99.9 -999.9 -9.9 -9.999 -99.9 -99.99 -9.99
2019/11/19 22:06 EST  -99.99 -99.99    3  298    4 -99.9 -99.9 -999.9 -9.9 -9.999 -99.9 -99.99 -9.99
2019/11/19 22:12 EST  -99.99 -99.99    3  261    4 -99.9 -99.9 -999.9 -9.9 -9.999 -99.9 -99.99 -9.99
2019/11/19 22:18 EST  -99.99 -99.99    3  248    4 -99.9 -99.9 -999.9 -9.9 -9.999 -99.9 -99.99 -9.99
2019/11/19 22:24 EST  -99.99 -99.99    2  246    4 -99.9 -99.9 -999.9 -9.9 -9.999 -99.9 -99.99 -9.99
2019/11/19 22:30 EST  -99.99 -99.99    4  266    5 -99.9 -99.9 -999.9 -9.9 -9.999 -99.9 -99.99 -9.99
2019/11/19 22:36 EST  -99.99 -99.99    3  296    4 -99.9 -99.9 -999.9 -9.9 -9.999 -99.9 -99.99 -9.99
2019/11/19 22:42 EST  -99.99 -99.99    4  301    4 -99.9 -99.9 -999.9 -9.9 -9.999 -99.9 -99.99 -9.99
2019/11/19 22:48 EST  -99.99 -99.99    4  289    5 -99.9 -99.9 -999.9 -9.9 -9.999 -99.9 -99.99 -9.99
2019/11/19 22:54 EST  -99.99 -99.99    4  278    5 -99.9 -99.9 -999.9 -9.9 -9.999 -99.9 -99.99 -9.99
2019/11/19 23:00 EST  -99.99 -99.99    4  282    6 -99.9 -99.9 -999.9 -9.9 -9.999 -99.9 -99.99 -9.99
2019/11/19 23:06 EST  -99.99 -99.99    6  294    7 -99.9 -99.9 -999.9 -9.9 -9.999 -99.9 -99.99 -9.99
2019/11/19 23:12 EST  -99.99 -99.99    6  297    7 -99.9 -99.9 -999.9 -9.9 -9.999 -99.9 -99.99 -9.99
2019/11/19 23:18 EST  -99.99 -99.99    6  298    8 -99.9 -99.9 -999.9 -9.9 -9.999 -99.9 -99.99 -9.99
2019/11/19 23:24 EST  -99.99 -99.99    6  296    7 -99.9 -99.9 -999.9 -9.9 -9.999 -99.9 -99.99 -9.99
2019/11/19 23:30 EST  -99.99 -99.99    5  303    6 -99.9 -99.9 -999.9 -9.9 -9.999 -99.9 -99.99 -9.99
2019/11/19 23:36 EST  -99.99 -99.99    5  296    6 -99.9 -99.9 -999.9 -9.9 -9.999 -99.9 -99.99 -9.99
2019/11/19 23:42 EST  -99.99 -99.99    5  293    6 -99.9 -99.9 -999.9 -9.9 -9.999 -99.9 -99.99 -9.99
2019/11/19 23:48 EST  -99.99 -99.99    5  291    7 -99.9 -99.9 -999.9 -9.9 -9.999 -99.9 -99.99 -9.99
2019/11/19 23:54 EST  -99.99 -99.99    4  290    6 -99.9 -99.9 -999.9 -9.9 -9.999 -99.9 -99.99 -9.99
2019/11/20 00:00 EST  -99.99 -99.99    4  303    5 -99.9 -99.9 -999.9 -9.9 -9.999 -99.9 -99.99 -9.99
2019/11/20 00:06 EST  -99.99 -99.99    4  299    5 -99.9 -99.9 -999.9 -9.9 -9.999 -99.9 -99.99 -9.99
2019/11/20 00:12 EST  -99.99 -99.99    5  285    6 -99.9 -99.9 -999.9 -9.9 -9.999 -99.9 -99.99 -9.99
2019/11/20 00:18 EST  -99.99 -99.99    5  287    6 -99.9 -99.9 -999.9 -9.9 -9.999 -99.9 -99.99 -9.99
2019/11/20 00:24 EST  -99.99 -99.99    4  296    6 -99.9 -99.9 -999.9 -9.9 -9.999 -99.9 -99.99 -9.99
2019/11/20 00:30 EST  -99.99 -99.99    4  288    6 -99.9 -99.9 -999.9 -9.9 -9.999 -99.9 -99.99 -9.99
2019/11/20 00:36 EST  -99.99 -99.99    6  294    7 -99.9 -99.9 -999.9 -9.9 -9.999 -99.9 -99.99 -9.99
2019/11/20 00:42 EST  -99.99 -99.99    7  294    8 -99.9 -99.9 -999.9 -9.9 -9.999 -99.9 -99.99 -9.99
2019/11/20 00:48 EST  -99.99 -99.99    7  303    8 -99.9 -99.9 -999.9 -9.9 -9.999 -99.9 -99.99 -9.99
2019/11/20 00:54 EST  -99.99 -99.99    7  310    8 -99.9 -99.9 -999.9 -9.9 -9.999 -99.9 -99.99 -9.99
2019/11/20 01:00 EST  -99.99 -99.99    8  298    9 -99.9 -99.9 -999.9 -9.9 -9.999 -99.9 -99.99 -9.99
2019/11/20 01:06 EST  -99.99 -99.99    5  286    8 -99.9 -99.9 -999.9 -9.9 -9.999 -99.9 -99.99 -9.99
2019/11/20 01:12 EST  -99.99 -99.99    6  290    7 -99.9 -99.9 -999.9 -9.9 -9.999 -99.9 -99.99 -9.99
2019/11/20 01:18 EST  -99.99 -99.99    6  296    7 -99.9 -99.9 -999.9 -9.9 -9.999 -99.9 -99.99 -9.99
2019/11/20 01:24 EST  -99.99 -99.99    5  306    6 -99.9 -99.9 -999.9 -9.9 -9.999 -99.9 -99.99 -9.99
2019/11/20 01:30 EST  -99.99 -99.99    5  300    6 -99.9 -99.9 -999.9 -9.9 -9.999 -99.9 -99.99 -9.99
2019/11/20 01:36 EST  -99.99 -99.99    6  288    8 -99.9 -99.9 -999.9 -9.9 -9.999 -99.9 -99.99 -9.99
2019/11/20 01:42 EST  -99.99 -99.99    7  294    9 -99.9 -99.9 -999.9 -9.9 -9.999 -99.9 -99.99 -9.99
2019/11/20 01:48 EST  -99.99 -99.99    7  291    8 -99.9 -99.9 -999.9 -9.9 -9.999 -99.9 -99.99 -9.99
2019/11/20 01:54 EST  -99.99 -99.99    6  291    8 -99.9 -99.9 -999.9 -9.9 -9.999 -99.9 -99.99 -9.99
2019/11/20 02:00 EST  -99.99 -99.99    6  293    8 -99.9 -99.9 -999.9 -9.9 -9.999 -99.9 -99.99 -9.99
2019/11/20 02:06 EST  -99.99 -99.99    6  297    7 -99.9 -99.9 -999.9 -9.9 -9.999 -99.9 -99.99 -9.99
2019/11/20 02:12 EST  -99.99 -99.99    7  302    8 -99.9 -99.9 -999.9 -9.9 -9.999 -99.9 -99.99 -9.99
2019/11/20 02:18 EST  -99.99 -99.99    6  315    7 -99.9 -99.9 -999.9 -9.9 -9.999 -99.9 -99.99 -9.99
2019/11/20 02:24 EST  -99.99 -99.99    8  315    8 -99.9 -99.9 -999.9 -9.9 -9.999 -99.9 -99.99 -9.99
2019/11/20 02:30 EST  -99.99 -99.99    7  318    9 -99.9 -99.9 -999.9 -9.9 -9.999 -99.9 -99.99 -9.99
2019/11/20 02:36 EST  -99.99 -99.99    7  315    7 -99.9 -99.9 -999.9 -9.9 -9.999 -99.9 -99.99 -9.99
2019/11/20 02:42 EST  -99.99 -99.99    8  315    8 -99.9 -99.9 -999.9 -9.9 -9.999 -99.9 -99.99 -9.99
2019/11/20 02:48 EST  -99.99 -99.99    7  311    9 -99.9 -99.9 -999.9 -9.9 -9.999 -99.9 -99.99 -9.99
2019/11/20 02:54 EST  -99.99 -99.99    7  309    8 -99.9 -99.9 -999.9 -9.9 -9.999 -99.9 -99.99 -9.99
2019/11/20 03:00 EST  -99.99 -99.99 -999 -999 -999 -99.9 -99.9 -999.9 -9.9 -9.999 -99.9 -99.99 -9.99
2019/11/20 03:06 EST  -99.99 -99.99    7  307    9 -99.9 -99.9 -999.9 -9.9 -9.999 -99.9 -99.99 -9.99
2019/11/20 03:12 EST  -99.99 -99.99    8  310    9 -99.9 -99.9 -999.9 -9.9 -9.999 -99.9 -99.99 -9.99
2019/11/20 03:18 EST  -99.99 -99.99    8  308   10 -99.9 -99.9 -999.9 -9.9 -9.999 -99.9 -99.99 -9.99
2019/11/20 03:24 EST  -99.99 -99.99    8  307   11 -99.9 -99.9 -999.9 -9.9 -9.999 -99.9 -99.99 -9.99
2019/11/20 03:30 EST  -99.99 -99.99   11  310   13 -99.9 -99.9 -999.9 -9.9 -9.999 -99.9 -99.99 -9.99
2019/11/20 03:36 EST  -99.99 -99.99   10  306   13 -99.9 -99.9 -999.9 -9.9 -9.999 -99.9 -99.99 -9.99
2019/11/20 03:42 EST  -99.99 -99.99   11  306   12 -99.9 -99.9 -999.9 -9.9 -9.999 -99.9 -99.99 -9.99
2019/11/20 03:48 EST  -99.99 -99.99   11  310   13 -99.9 -99.9 -999.9 -9.9 -9.999 -99.9 -99.99 -9.99
2019/11/20 03:54 EST  -99.99 -99.99   12  315   13 -99.9 -99.9 -999.9 -9.9 -9.999 -99.9 -99.99 -9.99
2019/11/20 04:00 EST  -99.99 -99.99   12  317   14 -99.9 -99.9 -999.9 -9.9 -9.999 -99.9 -99.99 -9.99
2019/11/20 04:06 EST  -99.99 -99.99   11  317   13 -99.9 -99.9 -999.9 -9.9 -9.999 -99.9 -99.99 -9.99
2019/11/20 04:12 EST  -99.99 -99.99   11  321   12 -99.9 -99.9 -999.9 -9.9 -9.999 -99.9 -99.99 -9.99
2019/11/20 04:18 EST  -99.99 -99.99   11  322   12 -99.9 -99.9 -999.9 -9.9 -9.999 -99.9 -99.99 -9.99
2019/11/20 04:24 EST  -99.99 -99.99   12  325   13 -99.9 -99.9 -999.9 -9.9 -9.999 -99.9 -99.99 -9.99
2019/11/20 04:30 EST  -99.99 -99.99   13  327   14 -99.9 -99.9 -999.9 -9.9 -9.999 -99.9 -99.99 -9.99
2019/11/20 04:36 EST  -99.99 -99.99   12  332   14 -99.9 -99.9 -999.9 -9.9 -9.999 -99.9 -99.99 -9.99
2019/11/20 04:42 EST  -99.99 -99.99   13  332   15 -99.9 -99.9 -999.9 -9.9 -9.999 -99.9 -99.99 -9.99
2019/11/20 04:48 EST  -99.99 -99.99   14  333   15 -99.9 -99.9 -999.9 -9.9 -9.999 -99.9 -99.99 -9.99
2019/11/20 04:54 EST  -99.99 -99.99   14  334   16 -99.9 -99.9 -999.9 -9.9 -9.999 -99.9 -99.99 -9.99
2019/11/20 05:00 EST  -99.99 -99.99   14  333   16 -99.9 -99.9 -999.9 -9.9 -9.999 -99.9 -99.99 -9.99
2019/11/20 05:06 EST  -99.99 -99.99   13  330   15 -99.9 -99.9 -999.9 -9.9 -9.999 -99.9 -99.99 -9.99
2019/11/20 05:12 EST  -99.99 -99.99   13  327   15 -99.9 -99.9 -999.9 -9.9 -9.999 -99.9 -99.99 -9.99
2019/11/20 05:18 EST  -99.99 -99.99   14  331   15 -99.9 -99.9 -999.9 -9.9 -9.999 -99.9 -99.99 -9.99
2019/11/20 05:24 EST  -99.99 -99.99   14  338   16 -99.9 -99.9 -999.9 -9.9 -9.999 -99.9 -99.99 -9.99
2019/11/20 05:30 EST  -99.99 -99.99   15  333   17 -99.9 -99.9 -999.9 -9.9 -9.999 -99.9 -99.99 -9.99
2019/11/20 05:36 EST  -99.99 -99.99   14  337   17 -99.9 -99.9 -999.9 -9.9 -9.999 -99.9 -99.99 -9.99
2019/11/20 05:42 EST  -99.99 -99.99   14  341   17 -99.9 -99.9 -999.9 -9.9 -9.999 -99.9 -99.99 -9.99
2019/11/20 05:48 EST  -99.99 -99.99   14  342   17 -99.9 -99.9 -999.9 -9.9 -9.999 -99.9 -99.99 -9.99
2019/11/20 05:54 EST  -99.99 -99.99   13  336   16 -99.9 -99.9 -999.9 -9.9 -9.999 -99.9 -99.99 -9.99
2019/11/20 06:00 EST  -99.99 -99.99   14  344   16 -99.9 -99.9 -999.9 -9.9 -9.999 -99.9 -99.99 -9.99
2019/11/20 06:06 EST  -99.99 -99.99   14  347   15 -99.9 -99.9 -999.9 -9.9 -9.999 -99.9 -99.99 -9.99
2019/11/20 06:12 EST  -99.99 -99.99   14  351   16 -99.9 -99.9 -999.9 -9.9 -9.999 -99.9 -99.99 -9.99
2019/11/20 06:18 EST  -99.99 -99.99   12  353   16 -99.9 -99.9 -999.9 -9.9 -9.999 -99.9 -99.99 -9.99
2019/11/20 06:24 EST  -99.99 -99.99   11  357   14 -99.9 -99.9 -999.9 -9.9 -9.999 -99.9 -99.99 -9.99
2019/11/20 06:30 EST  -99.99 -99.99   11  357   13 -99.9 -99.9 -999.9 -9.9 -9.999 -99.9 -99.99 -9.99
2019/11/20 06:36 EST  -99.99 -99.99   11  353   13 -99.9 -99.9 -999.9 -9.9 -9.999 -99.9 -99.99 -9.99
2019/11/20 06:42 EST  -99.99 -99.99   11  353   13 -99.9 -99.9 -999.9 -9.9 -9.999 -99.9 -99.99 -9.99
2019/11/20 06:48 EST  -99.99 -99.99   11  351   12 -99.9 -99.9 -999.9 -9.9 -9.999 -99.9 -99.99 -9.99
2019/11/20 06:54 EST  -99.99 -99.99    9  352   12 -99.9 -99.9 -999.9 -9.9 -9.999 -99.9 -99.99 -9.99
2019/11/20 07:00 EST  -99.99 -99.99   10  347   11 -99.9 -99.9 -999.9 -9.9 -9.999 -99.9 -99.99 -9.99
2019/11/20 07:06 EST  -99.99 -99.99    9  349   11 -99.9 -99.9 -999.9 -9.9 -9.999 -99.9 -99.99 -9.99
2019/11/20 07:12 EST  -99.99 -99.99    9  351   11 -99.9 -99.9 -999.9 -9.9 -9.999 -99.9 -99.99 -9.99
2019/11/20 07:18 EST  -99.99 -99.99   11  342   12 -99.9 -99.9 -999.9 -9.9 -9.999 -99.9 -99.99 -9.99
2019/11/20 07:24 EST  -99.99 -99.99   10  345   12 -99.9 -99.9 -999.9 -9.9 -9.999 -99.9 -99.99 -9.99
2019/11/20 07:30 EST  -99.99 -99.99 -999 -999 -999 -99.9 -99.9 -999.9 -9.9 -9.999 -99.9 -99.99 -9.99
2019/11/20 07:36 EST  -99.99 -99.99    9  346   10 -99.9 -99.9 -999.9 -9.9 -9.999 -99.9 -99.99 -9.99
2019/11/20 07:42 EST  -99.99 -99.99   10  338   11 -99.9 -99.9 -999.9 -9.9 -9.999 -99.9 -99.99 -9.99
2019/11/20 07:48 EST  -99.99 -99.99   13  336   14 -99.9 -99.9 -999.9 -9.9 -9.999 -99.9 -99.99 -9.99
2019/11/20 07:54 EST  -99.99 -99.99   13  345   16 -99.9 -99.9 -999.9 -9.9 -9.999 -99.9 -99.99 -9.99
2019/11/20 08:00 EST  -99.99 -99.99   12  341   15 -99.9 -99.9 -999.9 -9.9 -9.999 -99.9 -99.99 -9.99
2019/11/20 08:06 EST  -99.99 -99.99   13  340   14 -99.9 -99.9 -999.9 -9.9 -9.999 -99.9 -99.99 -9.99
2019/11/20 08:12 EST  -99.99 -99.99   12  337   14 -99.9 -99.9 -999.9 -9.9 -9.999 -99.9 -99.99 -9.99
2019/11/20 08:18 EST  -99.99 -99.99   11  341   14 -99.9 -99.9 -999.9 -9.9 -9.999 -99.9 -99.99 -9.99
2019/11/20 08:24 EST  -99.99 -99.99   11  340   14 -99.9 -99.9 -999.9 -9.9 -9.999 -99.9 -99.99 -9.99
2019/11/20 08:30 EST  -99.99 -99.99   11  338   12 -99.9 -99.9 -999.9 -9.9 -9.999 -99.9 -99.99 -9.99
2019/11/20 08:36 EST  -99.99 -99.99   10  335   12 -99.9 -99.9 -999.9 -9.9 -9.999 -99.9 -99.99 -9.99
2019/11/20 08:42 EST  -99.99 -99.99   11  335   12 -99.9 -99.9 -999.9 -9.9 -9.999 -99.9 -99.99 -9.99
2019/11/20 08:48 EST  -99.99 -99.99   10  334   12 -99.9 -99.9 -999.9 -9.9 -9.999 -99.9 -99.99 -9.99
2019/11/20 08:54 EST  -99.99 -99.99   10  337   11 -99.9 -99.9 -999.9 -9.9 -9.999 -99.9 -99.99 -9.99
2019/11/20 09:00 EST  -99.99 -99.99   11  330   13 -99.9 -99.9 -999.9 -9.9 -9.999 -99.9 -99.99 -9.99
2019/11/20 09:06 EST  -99.99 -99.99   11  326   12 -99.9 -99.9 -999.9 -9.9 -9.999 -99.9 -99.99 -9.99
2019/11/20 09:12 EST  -99.99 -99.99   12  333   14 -99.9 -99.9 -999.9 -9.9 -9.999 -99.9 -99.99 -9.99
2019/11/20 09:18 EST  -99.99 -99.99   12  340   14 -99.9 -99.9 -999.9 -9.9 -9.999 -99.9 -99.99 -9.99
2019/11/20 09:24 EST  -99.99 -99.99   14  333   16 -99.9 -99.9 -999.9 -9.9 -9.999 -99.9 -99.99 -9.99
2019/11/20 09:30 EST  -99.99 -99.99   15  336   17 -99.9 -99.9 -999.9 -9.9 -9.999 -99.9 -99.99 -9.99
2019/11/20 09:36 EST  -99.99 -99.99   15  341   17 -99.9 -99.9 -999.9 -9.9 -9.999 -99.9 -99.99 -9.99
2019/11/20 09:42 EST  -99.99 -99.99   14  335   17 -99.9 -99.9 -999.9 -9.9 -9.999 -99.9 -99.99 -9.99
2019/11/20 09:48 EST  -99.99 -99.99   15  334   16 -99.9 -99.9 -999.9 -9.9 -9.999 -99.9 -99.99 -9.99
2019/11/20 09:54 EST  -99.99 -99.99   15  337   16 -99.9 -99.9 -999.9 -9.9 -9.999 -99.9 -99.99 -9.99
2019/11/20 10:00 EST  -99.99 -99.99   13  337   16 -99.9 -99.9 -999.9 -9.9 -9.999 -99.9 -99.99 -9.99
2019/11/20 10:06 EST  -99.99 -99.99   14  340   17 -99.9 -99.9 -999.9 -9.9 -9.999 -99.9 -99.99 -9.99
2019/11/20 10:12 EST  -99.99 -99.99   14  343   16 -99.9 -99.9 -999.9 -9.9 -9.999 -99.9 -99.99 -9.99
2019/11/20 10:18 EST  -99.99 -99.99   15  339   18 -99.9 -99.9 -999.9 -9.9 -9.999 -99.9 -99.99 -9.99
2019/11/20 10:24 EST  -99.99 -99.99   15  342   19 -99.9 -99.9 -999.9 -9.9 -9.999 -99.9 -99.99 -9.99
2019/11/20 10:30 EST  -99.99 -99.99 -999 -999 -999 -99.9 -99.9 -999.9 -9.9 -9.999 -99.9 -99.99 -9.99
2019/11/20 10:36 EST  -99.99 -99.99   15  340   17 -99.9 -99.9 -999.9 -9.9 -9.999 -99.9 -99.99 -9.99
2019/11/20 10:42 EST  -99.99 -99.99   17  338   20 -99.9 -99.9 -999.9 -9.9 -9.999 -99.9 -99.99 -9.99
2019/11/20 10:48 EST  -99.99 -99.99   16  342   19 -99.9 -99.9 -999.9 -9.9 -9.999 -99.9 -99.99 -9.99
2019/11/20 10:54 EST  -99.99 -99.99   17  350   20 -99.9 -99.9 -999.9 -9.9 -9.999 -99.9 -99.99 -9.99
2019/11/20 11:00 EST  -99.99 -99.99   14  348   17 -99.9 -99.9 -999.9 -9.9 -9.999 -99.9 -99.99 -9.99
2019/11/20 11:06 EST  -99.99 -99.99   15  342   18 -99.9 -99.9 -999.9 -9.9 -9.999 -99.9 -99.99 -9.99
2019/11/20 11:12 EST  -99.99 -99.99   16  337   18 -99.9 -99.9 -999.9 -9.9 -9.999 -99.9 -99.99 -9.99
2019/11/20 11:18 EST  -99.99 -99.99   16  340   19 -99.9 -99.9 -999.9 -9.9 -9.999 -99.9 -99.99 -9.99
2019/11/20 11:24 EST  -99.99 -99.99   16  340   19 -99.9 -99.9 -999.9 -9.9 -9.999 -99.9 -99.99 -9.99
2019/11/20 11:30 EST  -99.99 -99.99   15  341   19 -99.9 -99.9 -999.9 -9.9 -9.999 -99.9 -99.99 -9.99
2019/11/20 11:36 EST  -99.99 -99.99   15  338   20 -99.9 -99.9 -999.9 -9.9 -9.999 -99.9 -99.99 -9.99
2019/11/20 11:42 EST  -99.99 -99.99   14  336   19 -99.9 -99.9 -999.9 -9.9 -9.999 -99.9 -99.99 -9.99
2019/11/20 11:48 EST  -99.99 -99.99   16  342   19 -99.9 -99.9 -999.9 -9.9 -9.999 -99.9 -99.99 -9.99
2019/11/20 11:54 EST  -99.99 -99.99   16  344   21 -99.9 -99.9 -999.9 -9.9 -9.999 -99.9 -99.99 -9.99
2019/11/20 12:00 EST  -99.99 -99.99   18  347   20 -99.9 -99.9 -999.9 -9.9 -9.999 -99.9 -99.99 -9.99
2019/11/20 12:06 EST  -99.99 -99.99   17  342   19 -99.9 -99.9 -999.9 -9.9 -9.999 -99.9 -99.99 -9.99
2019/11/20 12:12 EST  -99.99 -99.99   16  331   19 -99.9 -99.9 -999.9 -9.9 -9.999 -99.9 -99.99 -9.99
2019/11/20 12:18 EST  -99.99 -99.99   17  332   20 -99.9 -99.9 -999.9 -9.9 -9.999 -99.9 -99.99 -9.99
2019/11/20 12:24 EST  -99.99 -99.99   15  334   17 -99.9 -99.9 -999.9 -9.9 -9.999 -99.9 -99.99 -9.99
2019/11/20 12:30 EST  -99.99 -99.99   17  326   21 -99.9 -99.9 -999.9 -9.9 -9.999 -99.9 -99.99 -9.99
2019/11/20 12:36 EST  -99.99 -99.99   14  326   19 -99.9 -99.9 -999.9 -9.9 -9.999 -99.9 -99.99 -9.99
2019/11/20 12:42 EST  -99.99 -99.99   16  315   17 -99.9 -99.9 -999.9 -9.9 -9.999 -99.9 -99.99 -9.99
2019/11/20 12:48 EST  -99.99 -99.99   16  309   19 -99.9 -99.9 -999.9 -9.9 -9.999 -99.9 -99.99 -9.99
2019/11/20 12:54 EST  -99.99 -99.99   14  312   18 -99.9 -99.9 -999.9 -9.9 -9.999 -99.9 -99.99 -9.99
2019/11/20 13:00 EST  -99.99 -99.99   17  325   19 -99.9 -99.9 -999.9 -9.9 -9.999 -99.9 -99.99 -9.99
2019/11/20 13:06 EST  -99.99 -99.99   17  319   19 -99.9 -99.9 -999.9 -9.9 -9.999 -99.9 -99.99 -9.99
2019/11/20 13:12 EST  -99.99 -99.99   17  309   20 -99.9 -99.9 -999.9 -9.9 -9.999 -99.9 -99.99 -9.99
2019/11/20 13:18 EST  -99.99 -99.99   18  304   21 -99.9 -99.9 -999.9 -9.9 -9.999 -99.9 -99.99 -9.99
2019/11/20 13:24 EST  -99.99 -99.99   20  306   22 -99.9 -99.9 -999.9 -9.9 -9.999 -99.9 -99.99 -9.99
2019/11/20 13:30 EST  -99.99 -99.99   18  310   23 -99.9 -99.9 -999.9 -9.9 -9.999 -99.9 -99.99 -9.99
2019/11/20 13:36 EST  -99.99 -99.99   19  307   22 -99.9 -99.9 -999.9 -9.9 -9.999 -99.9 -99.99 -9.99
2019/11/20 13:42 EST  -99.99 -99.99   18  305   22 -99.9 -99.9 -999.9 -9.9 -9.999 -99.9 -99.99 -9.99
2019/11/20 13:48 EST  -99.99 -99.99   18  305   20 -99.9 -99.9 -999.9 -9.9 -9.999 -99.9 -99.99 -9.99
2019/11/20 13:54 EST  -99.99 -99.99   16  309   20 -99.9 -99.9 -999.9 -9.9 -9.999 -99.9 -99.99 -9.99
2019/11/20 14:00 EST  -99.99 -99.99   20  320   23 -99.9 -99.9 -999.9 -9.9 -9.999 -99.9 -99.99 -9.99
2019/11/20 14:06 EST  -99.99 -99.99   18  328   23 -99.9 -99.9 -999.9 -9.9 -9.999 -99.9 -99.99 -9.99
2019/11/20 14:12 EST  -99.99 -99.99   17  333   22 -99.9 -99.9 -999.9 -9.9 -9.999 -99.9 -99.99 -9.99
2019/11/20 14:18 EST  -99.99 -99.99   18  327   20 -99.9 -99.9 -999.9 -9.9 -9.999 -99.9 -99.99 -9.99
2019/11/20 14:24 EST  -99.99 -99.99   17  324   21 -99.9 -99.9 -999.9 -9.9 -9.999 -99.9 -99.99 -9.99
2019/11/20 14:30 EST  -99.99 -99.99   19  325   24 -99.9 -99.9 -999.9 -9.9 -9.999 -99.9 -99.99 -9.99
2019/11/20 14:36 EST  -99.99 -99.99   20  330   24 -99.9 -99.9 -999.9 -9.9 -9.999 -99.9 -99.99 -9.99
2019/11/20 14:42 EST  -99.99 -99.99   19  325   23 -99.9 -99.9 -999.9 -9.9 -9.999 -99.9 -99.99 -9.99
2019/11/20 14:48 EST  -99.99 -99.99   20  330   24 -99.9 -99.9 -999.9 -9.9 -9.999 -99.9 -99.99 -9.99
2019/11/20 14:54 EST  -99.99 -99.99   18  329   22 -99.9 -99.9 -999.9 -9.9 -9.999 -99.9 -99.99 -9.99
2019/11/20 15:00 EST  -99.99 -99.99   19  327   22 -99.9 -99.9 -999.9 -9.9 -9.999 -99.9 -99.99 -9.99
2019/11/20 15:06 EST  -99.99 -99.99   20  333   22 -99.9 -99.9 -999.9 -9.9 -9.999 -99.9 -99.99 -9.99
2019/11/20 15:12 EST  -99.99 -99.99   18  328   20 -99.9 -99.9 -999.9 -9.9 -9.999 -99.9 -99.99 -9.99
2019/11/20 15:18 EST  -99.99 -99.99   18  332   23 -99.9 -99.9 -999.9 -9.9 -9.999 -99.9 -99.99 -9.99
2019/11/20 15:24 EST  -99.99 -99.99   18  339   22 -99.9 -99.9 -999.9 -9.9 -9.999 -99.9 -99.99 -9.99
2019/11/20 15:30 EST  -99.99 -99.99   17  334   20 -99.9 -99.9 -999.9 -9.9 -9.999 -99.9 -99.99 -9.99
2019/11/20 15:36 EST  -99.99 -99.99   20  331   24 -99.9 -99.9 -999.9 -9.9 -9.999 -99.9 -99.99 -9.99
2019/11/20 15:42 EST  -99.99 -99.99   21  328   23 -99.9 -99.9 -999.9 -9.9 -9.999 -99.9 -99.99 -9.99
2019/11/20 15:48 EST  -99.99 -99.99   19  332   23 -99.9 -99.9 -999.9 -9.9 -9.999 -99.9 -99.99 -9.99
2019/11/20 15:54 EST  -99.99 -99.99 -999 -999 -999 -99.9 -99.9 -999.9 -9.9 -9.999 -99.9 -99.99 -9.99
2019/11/20 16:00 EST  -99.99 -99.99   18  342   23 -99.9 -99.9 -999.9 -9.9 -9.999 -99.9 -99.99 -9.99
2019/11/20 16:06 EST  -99.99 -99.99   17  341   22 -99.9 -99.9 -999.9 -9.9 -9.999 -99.9 -99.99 -9.99
2019/11/20 16:12 EST  -99.99 -99.99   20  347   22 -99.9 -99.9 -999.9 -9.9 -9.999 -99.9 -99.99 -9.99
2019/11/20 16:18 EST  -99.99 -99.99   17  353   24 -99.9 -99.9 -999.9 -9.9 -9.999 -99.9 -99.99 -9.99
2019/11/20 16:24 EST  -99.99 -99.99   18  344   21 -99.9 -99.9 -999.9 -9.9 -9.999 -99.9 -99.99 -9.99
2019/11/20 16:30 EST  -99.99 -99.99   21  346   26 -99.9 -99.9 -999.9 -9.9 -9.999 -99.9 -99.99 -9.99
2019/11/20 16:36 EST  -99.99 -99.99   25  350   28 -99.9 -99.9 -999.9 -9.9 -9.999 -99.9 -99.99 -9.99
2019/11/20 16:42 EST  -99.99 -99.99   24  346   29 -99.9 -99.9 -999.9 -9.9 -9.999 -99.9 -99.99 -9.99
2019/11/20 16:48 EST  -99.99 -99.99   20  344   26 -99.9 -99.9 -999.9 -9.9 -9.999 -99.9 -99.99 -9.99
2019/11/20 16:54 EST  -99.99 -99.99   19  340   23 -99.9 -99.9 -999.9 -9.9 -9.999 -99.9 -99.99 -9.99
2019/11/20 17:00 EST  -99.99 -99.99   19  340   23 -99.9 -99.9 -999.9 -9.9 -9.999 -99.9 -99.99 -9.99
2019/11/20 17:06 EST  -99.99 -99.99 -999 -999 -999 -99.9 -99.9 -999.9 -9.9 -9.999 -99.9 -99.99 -9.99
2019/11/20 17:12 EST  -99.99 -99.99   21  340   24 -99.9 -99.9 -999.9 -9.9 -9.999 -99.9 -99.99 -9.99
2019/11/20 17:18 EST  -99.99 -99.99   19  344   24 -99.9 -99.9 -999.9 -9.9 -9.999 -99.9 -99.99 -9.99
2019/11/20 17:24 EST  -99.99 -99.99   18  341   22 -99.9 -99.9 -999.9 -9.9 -9.999 -99.9 -99.99 -9.99
2019/11/20 17:30 EST  -99.99 -99.99   18  343   24 -99.9 -99.9 -999.9 -9.9 -9.999 -99.9 -99.99 -9.99
2019/11/20 17:36 EST  -99.99 -99.99   17  340   21 -99.9 -99.9 -999.9 -9.9 -9.999 -99.9 -99.99 -9.99
2019/11/20 17:42 EST  -99.99 -99.99   20  336   22 -99.9 -99.9 -999.9 -9.9 -9.999 -99.9 -99.99 -9.99
2019/11/20 17:48 EST  -99.99 -99.99   18  334   21 -99.9 -99.9 -999.9 -9.9 -9.999 -99.9 -99.99 -9.99
2019/11/20 17:54 EST  -99.99 -99.99   17  334   19 -99.9 -99.9 -999.9 -9.9 -9.999 -99.9 -99.99 -9.99
2019/11/20 18:00 EST  -99.99 -99.99   17  332   20 -99.9 -99.9 -999.9 -9.9 -9.999 -99.9 -99.99 -9.99
2019/11/20 18:06 EST  -99.99 -99.99   18  334   20 -99.9 -99.9 -999.9 -9.9 -9.999 -99.9 -99.99 -9.99
2019/11/20 18:12 EST  -99.99 -99.99   19  328   21 -99.9 -99.9 -999.9 -9.9 -9.999 -99.9 -99.99 -9.99
2019/11/20 18:18 EST  -99.99 -99.99   17  330   21 -99.9 -99.9 -999.9 -9.9 -9.999 -99.9 -99.99 -9.99
2019/11/20 18:24 EST  -99.99 -99.99   18  327   21 -99.9 -99.9 -999.9 -9.9 -9.999 -99.9 -99.99 -9.99
2019/11/20 18:30 EST  -99.99 -99.99   17  328   20 -99.9 -99.9 -999.9 -9.9 -9.999 -99.9 -99.99 -9.99
2019/11/20 18:36 EST  -99.99 -99.99   17  323   20 -99.9 -99.9 -999.9 -9.9 -9.999 -99.9 -99.99 -9.99
2019/11/20 18:42 EST  -99.99 -99.99   18  322   20 -99.9 -99.9 -999.9 -9.9 -9.999 -99.9 -99.99 -9.99
2019/11/20 18:48 EST  -99.99 -99.99   17  324   22 -99.9 -99.9 -999.9 -9.9 -9.999 -99.9 -99.99 -9.99
2019/11/20 18:54 EST  -99.99 -99.99   18  326   22 -99.9 -99.9 -999.9 -9.9 -9.999 -99.9 -99.99 -9.99
2019/11/20 19:00 EST  -99.99 -99.99   19  328   24 -99.9 -99.9 -999.9 -9.9 -9.999 -99.9 -99.99 -9.99
2019/11/20 19:06 EST  -99.99 -99.99   19  331   22 -99.9 -99.9 -999.9 -9.9 -9.999 -99.9 -99.99 -9.99
2019/11/20 19:12 EST  -99.99 -99.99   18  329   20 -99.9 -99.9 -999.9 -9.9 -9.999 -99.9 -99.99 -9.99
2019/11/20 19:18 EST  -99.99 -99.99   18  331   20 -99.9 -99.9 -999.9 -9.9 -9.999 -99.9 -99.99 -9.99
2019/11/20 19:24 EST  -99.99 -99.99 -999 -999 -999 -99.9 -99.9 -999.9 -9.9 -9.999 -99.9 -99.99 -9.99
2019/11/20 19:30 EST  -99.99 -99.99   17  328   19 -99.9 -99.9 -999.9 -9.9 -9.999 -99.9 -99.99 -9.99
2019/11/20 19:36 EST  -99.99 -99.99   17  330   19 -99.9 -99.9 -999.9 -9.9 -9.999 -99.9 -99.99 -9.99
2019/11/20 19:42 EST  -99.99 -99.99   15  327   18 -99.9 -99.9 -999.9 -9.9 -9.999 -99.9 -99.99 -9.99
2019/11/20 19:48 EST  -99.99 -99.99   15  330   17 -99.9 -99.9 -999.9 -9.9 -9.999 -99.9 -99.99 -9.99
2019/11/20 19:54 EST  -99.99 -99.99   14  334   16 -99.9 -99.9 -999.9 -9.9 -9.999 -99.9 -99.99 -9.99
2019/11/20 20:00 EST  -99.99 -99.99 -999 -999 -999 -99.9 -99.9 -999.9 -9.9 -9.999 -99.9 -99.99 -9.99
2019/11/20 20:06 EST  -99.99 -99.99   15  335   16 -99.9 -99.9 -999.9 -9.9 -9.999 -99.9 -99.99 -9.99
2019/11/20 20:12 EST  -99.99 -99.99   15  331   17 -99.9 -99.9 -999.9 -9.9 -9.999 -99.9 -99.99 -9.99
2019/11/20 20:18 EST  -99.99 -99.99   15  329   17 -99.9 -99.9 -999.9 -9.9 -9.999 -99.9 -99.99 -9.99
2019/11/20 20:24 EST  -99.99 -99.99   16  326   18 -99.9 -99.9 -999.9 -9.9 -9.999 -99.9 -99.99 -9.99
2019/11/20 20:30 EST  -99.99 -99.99   16  325   19 -99.9 -99.9 -999.9 -9.9 -9.999 -99.9 -99.99 -9.99
2019/11/20 20:36 EST  -99.99 -99.99   17  325   18 -99.9 -99.9 -999.9 -9.9 -9.999 -99.9 -99.99 -9.99
2019/11/20 20:42 EST  -99.99 -99.99   18  327   20 -99.9 -99.9 -999.9 -9.9 -9.999 -99.9 -99.99 -9.99
2019/11/20 20:48 EST  -99.99 -99.99   17  330   19 -99.9 -99.9 -999.9 -9.9 -9.999 -99.9 -99.99 -9.99
2019/11/20 20:54 EST  -99.99 -99.99 -999 -999 -999 -99.9 -99.9 -999.9 -9.9 -9.999 -99.9 -99.99 -9.99
2019/11/20 21:00 EST  -99.99 -99.99   17  326   20 -99.9 -99.9 -999.9 -9.9 -9.999 -99.9 -99.99 -9.99
2019/11/20 21:06 EST  -99.99 -99.99   16  324   20 -99.9 -99.9 -999.9 -9.9 -9.999 -99.9 -99.99 -9.99
2019/11/20 21:12 EST  -99.99 -99.99   16  329   20 -99.9 -99.9 -999.9 -9.9 -9.999 -99.9 -99.99 -9.99
2019/11/20 21:18 EST  -99.99 -99.99   16  328   18 -99.9 -99.9 -999.9 -9.9 -9.999 -99.9 -99.99 -9.99
2019/11/20 21:24 EST  -99.99 -99.99   18  330   20 -99.9 -99.9 -999.9 -9.9 -9.999 -99.9 -99.99 -9.99
2019/11/20 21:30 EST  -99.99 -99.99   18  328   20 -99.9 -99.9 -999.9 -9.9 -9.999 -99.9 -99.99 -9.99
2019/11/20 21:36 EST  -99.99 -99.99   17  330   20 -99.9 -99.9 -999.9 -9.9 -9.999 -99.9 -99.99 -9.99
2019/11/20 21:42 EST  -99.99 -99.99   19  323   21 -99.9 -99.9 -999.9 -9.9 -9.999 -99.9 -99.99 -9.99
2019/11/20 21:48 EST  -99.99 -99.99   18  325   22 -99.9 -99.9 -999.9 -9.9 -9.999 -99.9 -99.99 -9.99
2019/11/20 21:54 EST  -99.99 -99.99   17  327   21 -99.9 -99.9 -999.9 -9.9 -9.999 -99.9 -99.99 -9.99
2019/11/20 22:00 EST  -99.99 -99.99   18  326   21 -99.9 -99.9 -999.9 -9.9 -9.999 -99.9 -99.99 -9.99
2019/11/20 22:06 EST  -99.99 -99.99   18  327   20 -99.9 -99.9 -999.9 -9.9 -9.999 -99.9 -99.99 -9.99
2019/11/20 22:12 EST  -99.99 -99.99   17  326   20 -99.9 -99.9 -999.9 -9.9 -9.999 -99.9 -99.99 -9.99
2019/11/20 22:18 EST  -99.99 -99.99   18  329   21 -99.9 -99.9 -999.9 -9.9 -9.999 -99.9 -99.99 -9.99
2019/11/20 22:24 EST  -99.99 -99.99   20  328   23 -99.9 -99.9 -999.9 -9.9 -9.999 -99.9 -99.99 -9.99
2019/11/20 22:30 EST  -99.99 -99.99   20  334   24 -99.9 -99.9 -999.9 -9.9 -9.999 -99.9 -99.99 -9.99
2019/11/20 22:36 EST  -99.99 -99.99   18  334   22 -99.9 -99.9 -999.9 -9.9 -9.999 -99.9 -99.99 -9.99
2019/11/20 22:42 EST  -99.99 -99.99   19  333   22 -99.9 -99.9 -999.9 -9.9 -9.999 -99.9 -99.99 -9.99
2019/11/20 22:48 EST  -99.99 -99.99   20  334   23 -99.9 -99.9 -999.9 -9.9 -9.999 -99.9 -99.99 -9.99
2019/11/20 22:54 EST  -99.99 -99.99   20  343   23 -99.9 -99.9 -999.9 -9.9 -9.999 -99.9 -99.99 -9.99
2019/11/20 23:00 EST  -99.99 -99.99   21  341   22 -99.9 -99.9 -999.9 -9.9 -9.999 -99.9 -99.99 -9.99
2019/11/20 23:06 EST  -99.99 -99.99   18  345   22 -99.9 -99.9 -999.9 -9.9 -9.999 -99.9 -99.99 -9.99
2019/11/20 23:12 EST  -99.99 -99.99   17  343   19 -99.9 -99.9 -999.9 -9.9 -9.999 -99.9 -99.99 -9.99
2019/11/20 23:18 EST  -99.99 -99.99   17  345   19 -99.9 -99.9 -999.9 -9.9 -9.999 -99.9 -99.99 -9.99
2019/11/20 23:24 EST  -99.99 -99.99   17  344   19 -99.9 -99.9 -999.9 -9.9 -9.999 -99.9 -99.99 -9.99
2019/11/20 23:30 EST  -99.99 -99.99   16  343   19 -99.9 -99.9 -999.9 -9.9 -9.999 -99.9 -99.99 -9.99
2019/11/20 23:36 EST  -99.99 -99.99 -999 -999 -999 -99.9 -99.9 -999.9 -9.9 -9.999 -99.9 -99.99 -9.99
2019/11/20 23:42 EST  -99.99 -99.99   16  340   18 -99.9 -99.9 -999.9 -9.9 -9.999 -99.9 -99.99 -9.99
2019/11/20 23:48 EST  -99.99 -99.99   16  336   18 -99.9 -99.9 -999.9 -9.9 -9.999 -99.9 -99.99 -9.99
2019/11/20 23:54 EST  -99.99 -99.99   17  335   19 -99.9 -99.9 -999.9 -9.9 -9.999 -99.9 -99.99 -9.99
2019/11/21 00:00 EST  -99.99 -99.99   18  329   21 -99.9 -99.9 -999.9 -9.9 -9.999 -99.9 -99.99 -9.99
2019/11/21 00:06 EST  -99.99 -99.99   18  328   20 -99.9 -99.9 -999.9 -9.9 -9.999 -99.9 -99.99 -9.99
2019/11/21 00:12 EST  -99.99 -99.99   17  330   20 -99.9 -99.9 -999.9 -9.9 -9.999 -99.9 -99.99 -9.99
2019/11/21 00:18 EST  -99.99 -99.99   16  331   19 -99.9 -99.9 -999.9 -9.9 -9.999 -99.9 -99.99 -9.99
2019/11/21 00:24 EST  -99.99 -99.99   18  334   20 -99.9 -99.9 -999.9 -9.9 -9.999 -99.9 -99.99 -9.99
2019/11/21 00:30 EST  -99.99 -99.99   17  341   18 -99.9 -99.9 -999.9 -9.9 -9.999 -99.9 -99.99 -9.99
2019/11/21 00:36 EST  -99.99 -99.99   17  339   19 -99.9 -99.9 -999.9 -9.9 -9.999 -99.9 -99.99 -9.99
2019/11/21 00:42 EST  -99.99 -99.99   15  335   20 -99.9 -99.9 -999.9 -9.9 -9.999 -99.9 -99.99 -9.99
2019/11/21 00:48 EST  -99.99 -99.99   17  330   19 -99.9 -99.9 -999.9 -9.9 -9.999 -99.9 -99.99 -9.99
2019/11/21 00:54 EST  -99.99 -99.99   16  329   18 -99.9 -99.9 -999.9 -9.9 -9.999 -99.9 -99.99 -9.99
2019/11/21 01:00 EST  -99.99 -99.99   16  331   19 -99.9 -99.9 -999.9 -9.9 -9.999 -99.9 -99.99 -9.99
2019/11/21 01:06 EST  -99.99 -99.99   16  333   19 -99.9 -99.9 -999.9 -9.9 -9.999 -99.9 -99.99 -9.99
2019/11/21 01:12 EST  -99.99 -99.99   16  334   19 -99.9 -99.9 -999.9 -9.9 -9.999 -99.9 -99.99 -9.99
2019/11/21 01:18 EST  -99.99 -99.99   17  336   19 -99.9 -99.9 -999.9 -9.9 -9.999 -99.9 -99.99 -9.99
2019/11/21 01:24 EST  -99.99 -99.99   18  333   20 -99.9 -99.9 -999.9 -9.9 -9.999 -99.9 -99.99 -9.99
2019/11/21 01:30 EST  -99.99 -99.99   17  330   21 -99.9 -99.9 -999.9 -9.9 -9.999 -99.9 -99.99 -9.99
2019/11/21 01:36 EST  -99.99 -99.99   19  332   22 -99.9 -99.9 -999.9 -9.9 -9.999 -99.9 -99.99 -9.99
2019/11/21 01:42 EST  -99.99 -99.99   19  332   21 -99.9 -99.9 -999.9 -9.9 -9.999 -99.9 -99.99 -9.99
2019/11/21 01:48 EST  -99.99 -99.99   18  335   21 -99.9 -99.9 -999.9 -9.9 -9.999 -99.9 -99.99 -9.99
2019/11/21 01:54 EST  -99.99 -99.99   18  335   21 -99.9 -99.9 -999.9 -9.9 -9.999 -99.9 -99.99 -9.99
2019/11/21 02:00 EST  -99.99 -99.99   18  332   20 -99.9 -99.9 -999.9 -9.9 -9.999 -99.9 -99.99 -9.99
2019/11/21 02:06 EST  -99.99 -99.99   17  334   20 -99.9 -99.9 -999.9 -9.9 -9.999 -99.9 -99.99 -9.99
2019/11/21 02:12 EST  -99.99 -99.99   17  335   20 -99.9 -99.9 -999.9 -9.9 -9.999 -99.9 -99.99 -9.99
2019/11/21 02:18 EST  -99.99 -99.99   18  335   21 -99.9 -99.9 -999.9 -9.9 -9.999 -99.9 -99.99 -9.99
2019/11/21 02:24 EST  -99.99 -99.99 -999 -999 -999 -99.9 -99.9 -999.9 -9.9 -9.999 -99.9 -99.99 -9.99
2019/11/21 02:30 EST  -99.99 -99.99   18  333   21 -99.9 -99.9 -999.9 -9.9 -9.999 -99.9 -99.99 -9.99
2019/11/21 02:36 EST  -99.99 -99.99   17  338   19 -99.9 -99.9 -999.9 -9.9 -9.999 -99.9 -99.99 -9.99
2019/11/21 02:42 EST  -99.99 -99.99   17  337   20 -99.9 -99.9 -999.9 -9.9 -9.999 -99.9 -99.99 -9.99
2019/11/21 02:48 EST  -99.99 -99.99   16  334   19 -99.9 -99.9 -999.9 -9.9 -9.999 -99.9 -99.99 -9.99
2019/11/21 02:54 EST  -99.99 -99.99   16  337   19 -99.9 -99.9 -999.9 -9.9 -9.999 -99.9 -99.99 -9.99
2019/11/21 03:00 EST  -99.99 -99.99   15  332   17 -99.9 -99.9 -999.9 -9.9 -9.999 -99.9 -99.99 -9.99
2019/11/21 03:06 EST  -99.99 -99.99   17  333   20 -99.9 -99.9 -999.9 -9.9 -9.999 -99.9 -99.99 -9.99
2019/11/21 03:12 EST  -99.99 -99.99   17  332   20 -99.9 -99.9 -999.9 -9.9 -9.999 -99.9 -99.99 -9.99
2019/11/21 03:18 EST  -99.99 -99.99   17  334   21 -99.9 -99.9 -999.9 -9.9 -9.999 -99.9 -99.99 -9.99
2019/11/21 03:24 EST  -99.99 -99.99   18  333   20 -99.9 -99.9 -999.9 -9.9 -9.999 -99.9 -99.99 -9.99
2019/11/21 03:30 EST  -99.99 -99.99   17  337   19 -99.9 -99.9 -999.9 -9.9 -9.999 -99.9 -99.99 -9.99
2019/11/21 03:36 EST  -99.99 -99.99   17  335   18 -99.9 -99.9 -999.9 -9.9 -9.999 -99.9 -99.99 -9.99
2019/11/21 03:42 EST  -99.99 -99.99   16  337   18 -99.9 -99.9 -999.9 -9.9 -9.999 -99.9 -99.99 -9.99
2019/11/21 03:48 EST  -99.99 -99.99   15  338   17 -99.9 -99.9 -999.9 -9.9 -9.999 -99.9 -99.99 -9.99
2019/11/21 03:54 EST  -99.99 -99.99   14  341   18 -99.9 -99.9 -999.9 -9.9 -9.999 -99.9 -99.99 -9.99
2019/11/21 04:00 EST  -99.99 -99.99   13  343   16 -99.9 -99.9 -999.9 -9.9 -9.999 -99.9 -99.99 -9.99
2019/11/21 04:06 EST  -99.99 -99.99   14  345   16 -99.9 -99.9 -999.9 -9.9 -9.999 -99.9 -99.99 -9.99
2019/11/21 04:12 EST  -99.99 -99.99   14  340   15 -99.9 -99.9 -999.9 -9.9 -9.999 -99.9 -99.99 -9.99
2019/11/21 04:18 EST  -99.99 -99.99   12  339   15 -99.9 -99.9 -999.9 -9.9 -9.999 -99.9 -99.99 -9.99
2019/11/21 04:24 EST  -99.99 -99.99   13  340   15 -99.9 -99.9 -999.9 -9.9 -9.999 -99.9 -99.99 -9.99
2019/11/21 04:30 EST  -99.99 -99.99   12  339   15 -99.9 -99.9 -999.9 -9.9 -9.999 -99.9 -99.99 -9.99
2019/11/21 04:36 EST  -99.99 -99.99   13  344   15 -99.9 -99.9 -999.9 -9.9 -9.999 -99.9 -99.99 -9.99
2019/11/21 04:42 EST  -99.99 -99.99   12  342   15 -99.9 -99.9 -999.9 -9.9 -9.999 -99.9 -99.99 -9.99
2019/11/21 04:48 EST  -99.99 -99.99   14  345   16 -99.9 -99.9 -999.9 -9.9 -9.999 -99.9 -99.99 -9.99
2019/11/21 04:54 EST  -99.99 -99.99   14  347   16 -99.9 -99.9 -999.9 -9.9 -9.999 -99.9 -99.99 -9.99
2019/11/21 05:00 EST  -99.99 -99.99   13  346   16 -99.9 -99.9 -999.9 -9.9 -9.999 -99.9 -99.99 -9.99
2019/11/21 05:06 EST  -99.99 -99.99   12  342   14 -99.9 -99.9 -999.9 -9.9 -9.999 -99.9 -99.99 -9.99
2019/11/21 05:12 EST  -99.99 -99.99   12  344   15 -99.9 -99.9 -999.9 -9.9 -9.999 -99.9 -99.99 -9.99
2019/11/21 05:18 EST  -99.99 -99.99   12  344   15 -99.9 -99.9 -999.9 -9.9 -9.999 -99.9 -99.99 -9.99
2019/11/21 05:24 EST  -99.99 -99.99   11  347   14 -99.9 -99.9 -999.9 -9.9 -9.999 -99.9 -99.99 -9.99
2019/11/21 05:30 EST  -99.99 -99.99   13  345   15 -99.9 -99.9 -999.9 -9.9 -9.999 -99.9 -99.99 -9.99
2019/11/21 05:36 EST  -99.99 -99.99   13  337   14 -99.9 -99.9 -999.9 -9.9 -9.999 -99.9 -99.99 -9.99
2019/11/21 05:42 EST  -99.99 -99.99   12  338   15 -99.9 -99.9 -999.9 -9.9 -9.999 -99.9 -99.99 -9.99
2019/11/21 05:48 EST  -99.99 -99.99   13  344   15 -99.9 -99.9 -999.9 -9.9 -9.999 -99.9 -99.99 -9.99
2019/11/21 05:54 EST  -99.99 -99.99   13  342   16 -99.9 -99.9 -999.9 -9.9 -9.999 -99.9 -99.99 -9.99
2019/11/21 06:00 EST  -99.99 -99.99   14  343   17 -99.9 -99.9 -999.9 -9.9 -9.999 -99.9 -99.99 -9.99
2019/11/21 06:06 EST  -99.99 -99.99   12  347   15 -99.9 -99.9 -999.9 -9.9 -9.999 -99.9 -99.99 -9.99
2019/11/21 06:12 EST  -99.99 -99.99   13  348   14 -99.9 -99.9 -999.9 -9.9 -9.999 -99.9 -99.99 -9.99
2019/11/21 06:18 EST  -99.99 -99.99   12  353   14 -99.9 -99.9 -999.9 -9.9 -9.999 -99.9 -99.99 -9.99
2019/11/21 06:24 EST  -99.99 -99.99   12  340   14 -99.9 -99.9 -999.9 -9.9 -9.999 -99.9 -99.99 -9.99
2019/11/21 06:30 EST  -99.99 -99.99   10  345   11 -99.9 -99.9 -999.9 -9.9 -9.999 -99.9 -99.99 -9.99
2019/11/21 06:36 EST  -99.99 -99.99    9  345   11 -99.9 -99.9 -999.9 -9.9 -9.999 -99.9 -99.99 -9.99
2019/11/21 06:42 EST  -99.99 -99.99 -999 -999 -999 -99.9 -99.9 -999.9 -9.9 -9.999 -99.9 -99.99 -9.99
2019/11/21 06:48 EST  -99.99 -99.99   10  342   12 -99.9 -99.9 -999.9 -9.9 -9.999 -99.9 -99.99 -9.99
2019/11/21 06:54 EST  -99.99 -99.99 -999 -999 -999 -99.9 -99.9 -999.9 -9.9 -9.999 -99.9 -99.99 -9.99
2019/11/21 07:00 EST  -99.99 -99.99   11  336   13 -99.9 -99.9 -999.9 -9.9 -9.999 -99.9 -99.99 -9.99
2019/11/21 07:06 EST  -99.99 -99.99   12  337   14 -99.9 -99.9 -999.9 -9.9 -9.999 -99.9 -99.99 -9.99
2019/11/21 07:12 EST  -99.99 -99.99   11  340   13 -99.9 -99.9 -999.9 -9.9 -9.999 -99.9 -99.99 -9.99
2019/11/21 07:18 EST  -99.99 -99.99   11  335   13 -99.9 -99.9 -999.9 -9.9 -9.999 -99.9 -99.99 -9.99
2019/11/21 07:24 EST  -99.99 -99.99   11  333   13 -99.9 -99.9 -999.9 -9.9 -9.999 -99.9 -99.99 -9.99
2019/11/21 07:30 EST  -99.99 -99.99   11  335   13 -99.9 -99.9 -999.9 -9.9 -9.999 -99.9 -99.99 -9.99
2019/11/21 07:36 EST  -99.99 -99.99   10  335   12 -99.9 -99.9 -999.9 -9.9 -9.999 -99.9 -99.99 -9.99
2019/11/21 07:42 EST  -99.99 -99.99    8  343   11 -99.9 -99.9 -999.9 -9.9 -9.999 -99.9 -99.99 -9.99
2019/11/21 07:48 EST  -99.99 -99.99   10  338   11 -99.9 -99.9 -999.9 -9.9 -9.999 -99.9 -99.99 -9.99
2019/11/21 07:54 EST  -99.99 -99.99    9  337   12 -99.9 -99.9 -999.9 -9.9 -9.999 -99.9 -99.99 -9.99
2019/11/21 08:00 EST  -99.99 -99.99    9  334   11 -99.9 -99.9 -999.9 -9.9 -9.999 -99.9 -99.99 -9.99
2019/11/21 08:06 EST  -99.99 -99.99   10  336   11 -99.9 -99.9 -999.9 -9.9 -9.999 -99.9 -99.99 -9.99
2019/11/21 08:12 EST  -99.99 -99.99    8  338   10 -99.9 -99.9 -999.9 -9.9 -9.999 -99.9 -99.99 -9.99
2019/11/21 08:18 EST  -99.99 -99.99   10  337   11 -99.9 -99.9 -999.9 -9.9 -9.999 -99.9 -99.99 -9.99
2019/11/21 08:24 EST  -99.99 -99.99   10  332   12 -99.9 -99.9 -999.9 -9.9 -9.999 -99.9 -99.99 -9.99
2019/11/21 08:30 EST  -99.99 -99.99    9  337   11 -99.9 -99.9 -999.9 -9.9 -9.999 -99.9 -99.99 -9.99
2019/11/21 08:36 EST  -99.99 -99.99   10  341   12 -99.9 -99.9 -999.9 -9.9 -9.999 -99.9 -99.99 -9.99
2019/11/21 08:42 EST  -99.99 -99.99    8  340   10 -99.9 -99.9 -999.9 -9.9 -9.999 -99.9 -99.99 -9.99
2019/11/21 08:48 EST  -99.99 -99.99    8  341    9 -99.9 -99.9 -999.9 -9.9 -9.999 -99.9 -99.99 -9.99
2019/11/21 08:54 EST  -99.99 -99.99    9  329   10 -99.9 -99.9 -999.9 -9.9 -9.999 -99.9 -99.99 -9.99
2019/11/21 09:00 EST  -99.99 -99.99    8  331   10 -99.9 -99.9 -999.9 -9.9 -9.999 -99.9 -99.99 -9.99
2019/11/21 09:06 EST  -99.99 -99.99    9  329   10 -99.9 -99.9 -999.9 -9.9 -9.999 -99.9 -99.99 -9.99
2019/11/21 09:12 EST  -99.99 -99.99    9  330   10 -99.9 -99.9 -999.9 -9.9 -9.999 -99.9 -99.99 -9.99
2019/11/21 09:18 EST  -99.99 -99.99   10  326   11 -99.9 -99.9 -999.9 -9.9 -9.999 -99.9 -99.99 -9.99
2019/11/21 09:24 EST  -99.99 -99.99   10  324   12 -99.9 -99.9 -999.9 -9.9 -9.999 -99.9 -99.99 -9.99
2019/11/21 09:30 EST  -99.99 -99.99   11  328   11 -99.9 -99.9 -999.9 -9.9 -9.999 -99.9 -99.99 -9.99
2019/11/21 09:36 EST  -99.99 -99.99   11  330   12 -99.9 -99.9 -999.9 -9.9 -9.999 -99.9 -99.99 -9.99
2019/11/21 09:42 EST  -99.99 -99.99   10  330   11 -99.9 -99.9 -999.9 -9.9 -9.999 -99.9 -99.99 -9.99
2019/11/21 09:48 EST  -99.99 -99.99    8  333   11 -99.9 -99.9 -999.9 -9.9 -9.999 -99.9 -99.99 -9.99
2019/11/21 09:54 EST  -99.99 -99.99    9  331   10 -99.9 -99.9 -999.9 -9.9 -9.999 -99.9 -99.99 -9.99
2019/11/21 10:00 EST  -99.99 -99.99    8  329   10 -99.9 -99.9 -999.9 -9.9 -9.999 -99.9 -99.99 -9.99
2019/11/21 10:06 EST  -99.99 -99.99 -999 -999 -999 -99.9 -99.9 -999.9 -9.9 -9.999 -99.9 -99.99 -9.99
2019/11/21 10:12 EST  -99.99 -99.99    9  330   11 -99.9 -99.9 -999.9 -9.9 -9.999 -99.9 -99.99 -9.99
2019/11/21 10:18 EST  -99.99 -99.99    9  326   11 -99.9 -99.9 -999.9 -9.9 -9.999 -99.9 -99.99 -9.99
2019/11/21 10:24 EST  -99.99 -99.99    9  326   11 -99.9 -99.9 -999.9 -9.9 -9.999 -99.9 -99.99 -9.99
2019/11/21 10:30 EST  -99.99 -99.99    8  323   10 -99.9 -99.9 -999.9 -9.9 -9.999 -99.9 -99.99 -9.99
2019/11/21 10:36 EST  -99.99 -99.99    8  322    9 -99.9 -99.9 -999.9 -9.9 -9.999 -99.9 -99.99 -9.99
2019/11/21 10:42 EST  -99.99 -99.99    7  314    9 -99.9 -99.9 -999.9 -9.9 -9.999 -99.9 -99.99 -9.99
2019/11/21 10:48 EST  -99.99 -99.99    8  308    9 -99.9 -99.9 -999.9 -9.9 -9.999 -99.9 -99.99 -9.99
2019/11/21 10:54 EST  -99.99 -99.99    9  303   11 -99.9 -99.9 -999.9 -9.9 -9.999 -99.9 -99.99 -9.99
2019/11/21 11:00 EST  -99.99 -99.99    8  299   10 -99.9 -99.9 -999.9 -9.9 -9.999 -99.9 -99.99 -9.99
2019/11/21 11:06 EST  -99.99 -99.99    7  307   10 -99.9 -99.9 -999.9 -9.9 -9.999 -99.9 -99.99 -9.99
2019/11/21 11:12 EST  -99.99 -99.99    7  302   10 -99.9 -99.9 -999.9 -9.9 -9.999 -99.9 -99.99 -9.99
2019/11/21 11:18 EST  -99.99 -99.99    7  298    8 -99.9 -99.9 -999.9 -9.9 -9.999 -99.9 -99.99 -9.99
2019/11/21 11:24 EST  -99.99 -99.99    6  292    8 -99.9 -99.9 -999.9 -9.9 -9.999 -99.9 -99.99 -9.99
2019/11/21 11:30 EST  -99.99 -99.99    6  290    8 -99.9 -99.9 -999.9 -9.9 -9.999 -99.9 -99.99 -9.99
2019/11/21 11:36 EST  -99.99 -99.99    6  296    8 -99.9 -99.9 -999.9 -9.9 -9.999 -99.9 -99.99 -9.99
2019/11/21 11:42 EST  -99.99 -99.99    6  294    7 -99.9 -99.9 -999.9 -9.9 -9.999 -99.9 -99.99 -9.99
2019/11/21 11:48 EST  -99.99 -99.99    6  284    7 -99.9 -99.9 -999.9 -9.9 -9.999 -99.9 -99.99 -9.99
2019/11/21 11:54 EST  -99.99 -99.99    5  282    7 -99.9 -99.9 -999.9 -9.9 -9.999 -99.9 -99.99 -9.99
2019/11/21 12:00 EST  -99.99 -99.99    4  279    7 -99.9 -99.9 -999.9 -9.9 -9.999 -99.9 -99.99 -9.99
2019/11/21 12:06 EST  -99.99 -99.99    5  272    6 -99.9 -99.9 -999.9 -9.9 -9.999 -99.9 -99.99 -9.99
2019/11/21 12:12 EST  -99.99 -99.99    5  280    6 -99.9 -99.9 -999.9 -9.9 -9.999 -99.9 -99.99 -9.99
2019/11/21 12:18 EST  -99.99 -99.99    5  274    6 -99.9 -99.9 -999.9 -9.9 -9.999 -99.9 -99.99 -9.99
2019/11/21 12:24 EST  -99.99 -99.99    4  288    5 -99.9 -99.9 -999.9 -9.9 -9.999 -99.9 -99.99 -9.99
2019/11/21 12:30 EST  -99.99 -99.99    4  272    5 -99.9 -99.9 -999.9 -9.9 -9.999 -99.9 -99.99 -9.99
2019/11/21 12:36 EST  -99.99 -99.99    4  251    5 -99.9 -99.9 -999.9 -9.9 -9.999 -99.9 -99.99 -9.99
2019/11/21 12:42 EST  -99.99 -99.99    2  252    3 -99.9 -99.9 -999.9 -9.9 -9.999 -99.9 -99.99 -9.99
2019/11/21 12:48 EST  -99.99 -99.99    3  261    4 -99.9 -99.9 -999.9 -9.9 -9.999 -99.9 -99.99 -9.99
2019/11/21 12:54 EST  -99.99 -99.99    2  254    3 -99.9 -99.9 -999.9 -9.9 -9.999 -99.9 -99.99 -9.99
2019/11/21 13:00 EST  -99.99 -99.99    1  232    3 -99.9 -99.9 -999.9 -9.9 -9.999 -99.9 -99.99 -9.99
2019/11/21 13:06 EST  -99.99 -99.99    1  244    2 -99.9 -99.9 -999.9 -9.9 -9.999 -99.9 -99.99 -9.99
2019/11/21 13:12 EST  -99.99 -99.99    2  259    2 -99.9 -99.9 -999.9 -9.9 -9.999 -99.9 -99.99 -9.99
2019/11/21 13:18 EST  -99.99 -99.99    3  277    4 -99.9 -99.9 -999.9 -9.9 -9.999 -99.9 -99.99 -9.99
2019/11/21 13:24 EST  -99.99 -99.99    3  282    4 -99.9 -99.9 -999.9 -9.9 -9.999 -99.9 -99.99 -9.99
2019/11/21 13:30 EST  -99.99 -99.99    3  280    4 -99.9 -99.9 -999.9 -9.9 -9.999 -99.9 -99.99 -9.99
2019/11/21 13:36 EST  -99.99 -99.99    4  291    5 -99.9 -99.9 -999.9 -9.9 -9.999 -99.9 -99.99 -9.99
2019/11/21 13:42 EST  -99.99 -99.99    4  294    4 -99.9 -99.9 -999.9 -9.9 -9.999 -99.9 -99.99 -9.99
2019/11/21 13:48 EST  -99.99 -99.99    4  295    4 -99.9 -99.9 -999.9 -9.9 -9.999 -99.9 -99.99 -9.99
2019/11/21 13:54 EST  -99.99 -99.99    3  312    4 -99.9 -99.9 -999.9 -9.9 -9.999 -99.9 -99.99 -9.99
2019/11/21 14:00 EST  -99.99 -99.99    3  318    3 -99.9 -99.9 -999.9 -9.9 -9.999 -99.9 -99.99 -9.99
2019/11/21 14:06 EST  -99.99 -99.99    4  328    5 -99.9 -99.9 -999.9 -9.9 -9.999 -99.9 -99.99 -9.99
2019/11/21 14:12 EST  -99.99 -99.99    3  334    4 -99.9 -99.9 -999.9 -9.9 -9.999 -99.9 -99.99 -9.99
2019/11/21 14:18 EST  -99.99 -99.99    4  339    4 -99.9 -99.9 -999.9 -9.9 -9.999 -99.9 -99.99 -9.99
2019/11/21 14:24 EST  -99.99 -99.99    3  357    4 -99.9 -99.9 -999.9 -9.9 -9.999 -99.9 -99.99 -9.99
2019/11/21 14:30 EST  -99.99 -99.99    3  359    4 -99.9 -99.9 -999.9 -9.9 -9.999 -99.9 -99.99 -9.99
2019/11/21 14:36 EST  -99.99 -99.99    3  350    4 -99.9 -99.9 -999.9 -9.9 -9.999 -99.9 -99.99 -9.99
2019/11/21 14:42 EST  -99.99 -99.99    3    2    4 -99.9 -99.9 -999.9 -9.9 -9.999 -99.9 -99.99 -9.99
2019/11/21 14:48 EST  -99.99 -99.99    3  346    4 -99.9 -99.9 -999.9 -9.9 -9.999 -99.9 -99.99 -9.99
2019/11/21 14:54 EST  -99.99 -99.99    3  343    4 -99.9 -99.9 -999.9 -9.9 -9.999 -99.9 -99.99 -9.99
2019/11/21 15:00 EST  -99.99 -99.99    3  340    4 -99.9 -99.9 -999.9 -9.9 -9.999 -99.9 -99.99 -9.99
2019/11/21 15:06 EST  -99.99 -99.99    3  348    4 -99.9 -99.9 -999.9 -9.9 -9.999 -99.9 -99.99 -9.99
2019/11/21 15:12 EST  -99.99 -99.99    3  334    4 -99.9 -99.9 -999.9 -9.9 -9.999 -99.9 -99.99 -9.99
2019/11/21 15:18 EST  -99.99 -99.99    3  334    3 -99.9 -99.9 -999.9 -9.9 -9.999 -99.9 -99.99 -9.99
2019/11/21 15:24 EST  -99.99 -99.99    3  331    3 -99.9 -99.9 -999.9 -9.9 -9.999 -99.9 -99.99 -9.99
2019/11/21 15:30 EST  -99.99 -99.99    2  347    3 -99.9 -99.9 -999.9 -9.9 -9.999 -99.9 -99.99 -9.99
2019/11/21 15:36 EST  -99.99 -99.99    3  322    3 -99.9 -99.9 -999.9 -9.9 -9.999 -99.9 -99.99 -9.99
2019/11/21 15:42 EST  -99.99 -99.99    2  303    3 -99.9 -99.9 -999.9 -9.9 -9.999 -99.9 -99.99 -9.99
2019/11/21 15:48 EST  -99.99 -99.99    1  270    2 -99.9 -99.9 -999.9 -9.9 -9.999 -99.9 -99.99 -9.99
2019/11/21 15:54 EST  -99.99 -99.99    1  215    1 -99.9 -99.9 -999.9 -9.9 -9.999 -99.9 -99.99 -9.99
2019/11/21 16:00 EST  -99.99 -99.99    1  216    1 -99.9 -99.9 -999.9 -9.9 -9.999 -99.9 -99.99 -9.99
2019/11/21 16:06 EST  -99.99 -99.99    1  216    1 -99.9 -99.9 -999.9 -9.9 -9.999 -99.9 -99.99 -9.99
2019/11/21 16:12 EST  -99.99 -99.99    0  255    1 -99.9 -99.9 -999.9 -9.9 -9.999 -99.9 -99.99 -9.99
2019/11/21 16:18 EST  -99.99 -99.99    0  254    0 -99.9 -99.9 -999.9 -9.9 -9.999 -99.9 -99.99 -9.99
2019/11/21 16:24 EST  -99.99 -99.99    2  195    2 -99.9 -99.9 -999.9 -9.9 -9.999 -99.9 -99.99 -9.99
2019/11/21 16:30 EST  -99.99 -99.99    2  195    3 -99.9 -99.9 -999.9 -9.9 -9.999 -99.9 -99.99 -9.99
2019/11/21 16:36 EST  -99.99 -99.99    2  201    3 -99.9 -99.9 -999.9 -9.9 -9.999 -99.9 -99.99 -9.99
2019/11/21 16:42 EST  -99.99 -99.99    3  203    3 -99.9 -99.9 -999.9 -9.9 -9.999 -99.9 -99.99 -9.99
2019/11/21 16:48 EST  -99.99 -99.99    3  196    4 -99.9 -99.9 -999.9 -9.9 -9.999 -99.9 -99.99 -9.99
2019/11/21 16:54 EST  -99.99 -99.99    4  201    4 -99.9 -99.9 -999.9 -9.9 -9.999 -99.9 -99.99 -9.99
2019/11/21 17:00 EST  -99.99 -99.99    4  195    4 -99.9 -99.9 -999.9 -9.9 -9.999 -99.9 -99.99 -9.99
2019/11/21 17:06 EST  -99.99 -99.99    5  185    6 -99.9 -99.9 -999.9 -9.9 -9.999 -99.9 -99.99 -9.99
2019/11/21 17:12 EST  -99.99 -99.99    6  186    6 -99.9 -99.9 -999.9 -9.9 -9.999 -99.9 -99.99 -9.99
2019/11/21 17:18 EST  -99.99 -99.99    6  176    7 -99.9 -99.9 -999.9 -9.9 -9.999 -99.9 -99.99 -9.99
2019/11/21 17:24 EST  -99.99 -99.99    7  171    8 -99.9 -99.9 -999.9 -9.9 -9.999 -99.9 -99.99 -9.99
2019/11/21 17:30 EST  -99.99 -99.99    7  163    8 -99.9 -99.9 -999.9 -9.9 -9.999 -99.9 -99.99 -9.99
2019/11/21 17:36 EST  -99.99 -99.99    8  170    8 -99.9 -99.9 -999.9 -9.9 -9.999 -99.9 -99.99 -9.99
2019/11/21 17:42 EST  -99.99 -99.99    8  172    9 -99.9 -99.9 -999.9 -9.9 -9.999 -99.9 -99.99 -9.99
2019/11/21 17:48 EST  -99.99 -99.99    7  165    8 -99.9 -99.9 -999.9 -9.9 -9.999 -99.9 -99.99 -9.99
2019/11/21 17:54 EST  -99.99 -99.99    8  163    9 -99.9 -99.9 -999.9 -9.9 -9.999 -99.9 -99.99 -9.99
2019/11/21 18:00 EST  -99.99 -99.99    7  171    9 -99.9 -99.9 -999.9 -9.9 -9.999 -99.9 -99.99 -9.99
2019/11/21 18:06 EST  -99.99 -99.99    8  162   10 -99.9 -99.9 -999.9 -9.9 -9.999 -99.9 -99.99 -9.99
2019/11/21 18:12 EST  -99.99 -99.99    9  164   11 -99.9 -99.9 -999.9 -9.9 -9.999 -99.9 -99.99 -9.99
2019/11/21 18:18 EST  -99.99 -99.99    9  160   11 -99.9 -99.9 -999.9 -9.9 -9.999 -99.9 -99.99 -9.99
2019/11/21 18:24 EST  -99.99 -99.99   10  158   11 -99.9 -99.9 -999.9 -9.9 -9.999 -99.9 -99.99 -9.99
2019/11/21 18:30 EST  -99.99 -99.99   10  162   11 -99.9 -99.9 -999.9 -9.9 -9.999 -99.9 -99.99 -9.99
2019/11/21 18:36 EST  -99.99 -99.99   10  163   11 -99.9 -99.9 -999.9 -9.9 -9.999 -99.9 -99.99 -9.99
2019/11/21 18:42 EST  -99.99 -99.99    9  171   11 -99.9 -99.9 -999.9 -9.9 -9.999 -99.9 -99.99 -9.99
2019/11/21 18:48 EST  -99.99 -99.99 -999 -999 -999 -99.9 -99.9 -999.9 -9.9 -9.999 -99.9 -99.99 -9.99
2019/11/21 18:54 EST  -99.99 -99.99   11  173   13 -99.9 -99.9 -999.9 -9.9 -9.999 -99.9 -99.99 -9.99
2019/11/21 19:00 EST  -99.99 -99.99   11  173   13 -99.9 -99.9 -999.9 -9.9 -9.999 -99.9 -99.99 -9.99
2019/11/21 19:06 EST  -99.99 -99.99    9  170   12 -99.9 -99.9 -999.9 -9.9 -9.999 -99.9 -99.99 -9.99
2019/11/21 19:12 EST  -99.99 -99.99   11  178   12 -99.9 -99.9 -999.9 -9.9 -9.999 -99.9 -99.99 -9.99
2019/11/21 19:18 EST  -99.99 -99.99    8  189   11 -99.9 -99.9 -999.9 -9.9 -9.999 -99.9 -99.99 -9.99
2019/11/21 19:24 EST  -99.99 -99.99    9  202   10 -99.9 -99.9 -999.9 -9.9 -9.999 -99.9 -99.99 -9.99
2019/11/21 19:30 EST  -99.99 -99.99    7  204   10 -99.9 -99.9 -999.9 -9.9 -9.999 -99.9 -99.99 -9.99
2019/11/21 19:36 EST  -99.99 -99.99    6  201    8 -99.9 -99.9 -999.9 -9.9 -9.999 -99.9 -99.99 -9.99
2019/11/21 19:42 EST  -99.99 -99.99    6  199    8 -99.9 -99.9 -999.9 -9.9 -9.999 -99.9 -99.99 -9.99
2019/11/21 19:48 EST  -99.99 -99.99    7  200    8 -99.9 -99.9 -999.9 -9.9 -9.999 -99.9 -99.99 -9.99
2019/11/21 19:54 EST  -99.99 -99.99    6  193    7 -99.9 -99.9 -999.9 -9.9 -9.999 -99.9 -99.99 -9.99
2019/11/21 20:00 EST  -99.99 -99.99    6  193    8 -99.9 -99.9 -999.9 -9.9 -9.999 -99.9 -99.99 -9.99
2019/11/21 20:06 EST  -99.99 -99.99    7  201    8 -99.9 -99.9 -999.9 -9.9 -9.999 -99.9 -99.99 -9.99
2019/11/21 20:12 EST  -99.99 -99.99    6  204    8 -99.9 -99.9 -999.9 -9.9 -9.999 -99.9 -99.99 -9.99
2019/11/21 20:18 EST  -99.99 -99.99    7  210    9 -99.9 -99.9 -999.9 -9.9 -9.999 -99.9 -99.99 -9.99
2019/11/21 20:24 EST  -99.99 -99.99    7  203    9 -99.9 -99.9 -999.9 -9.9 -9.999 -99.9 -99.99 -9.99
2019/11/21 20:30 EST  -99.99 -99.99    7  202    8 -99.9 -99.9 -999.9 -9.9 -9.999 -99.9 -99.99 -9.99
2019/11/21 20:36 EST  -99.99 -99.99    7  204    8 -99.9 -99.9 -999.9 -9.9 -9.999 -99.9 -99.99 -9.99
2019/11/21 20:42 EST  -99.99 -99.99    8  195   10 -99.9 -99.9 -999.9 -9.9 -9.999 -99.9 -99.99 -9.99
2019/11/21 20:48 EST  -99.99 -99.99   10  184   11 -99.9 -99.9 -999.9 -9.9 -9.999 -99.9 -99.99 -9.99
2019/11/21 20:54 EST  -99.99 -99.99    8  192   12 -99.9 -99.9 -999.9 -9.9 -9.999 -99.9 -99.99 -9.99
2019/11/21 21:00 EST  -99.99 -99.99    9  207   10 -99.9 -99.9 -999.9 -9.9 -9.999 -99.9 -99.99 -9.99
2019/11/21 21:06 EST  -99.99 -99.99   10  207   11 -99.9 -99.9 -999.9 -9.9 -9.999 -99.9 -99.99 -9.99
2019/11/21 21:12 EST  -99.99 -99.99    9  208   11 -99.9 -99.9 -999.9 -9.9 -9.999 -99.9 -99.99 -9.99
2019/11/21 21:18 EST  -99.99 -99.99    9  210   10 -99.9 -99.9 -999.9 -9.9 -9.999 -99.9 -99.99 -9.99
2019/11/21 21:24 EST  -99.99 -99.99   11  207   13 -99.9 -99.9 -999.9 -9.9 -9.999 -99.9 -99.99 -9.99
2019/11/21 21:30 EST  -99.99 -99.99   11  214   12 -99.9 -99.9 -999.9 -9.9 -9.999 -99.9 -99.99 -9.99
2019/11/21 21:36 EST  -99.99 -99.99   11  209   13 -99.9 -99.9 -999.9 -9.9 -9.999 -99.9 -99.99 -9.99
2019/11/21 21:42 EST  -99.99 -99.99   11  203   13 -99.9 -99.9 -999.9 -9.9 -9.999 -99.9 -99.99 -9.99
2019/11/21 21:48 EST  -99.99 -99.99   10  208   12 -99.9 -99.9 -999.9 -9.9 -9.999 -99.9 -99.99 -9.99
2019/11/21 21:54 EST  -99.99 -99.99   10  201   12 -99.9 -99.9 -999.9 -9.9 -9.999 -99.9 -99.99 -9.99
2019/11/21 22:00 EST  -99.99 -99.99    8  197   10 -99.9 -99.9 -999.9 -9.9 -9.999 -99.9 -99.99 -9.99
2019/11/21 22:06 EST  -99.99 -99.99   10  193   11 -99.9 -99.9 -999.9 -9.9 -9.999 -99.9 -99.99 -9.99
2019/11/21 22:12 EST  -99.99 -99.99    9  197   12 -99.9 -99.9 -999.9 -9.9 -9.999 -99.9 -99.99 -9.99
2019/11/21 22:18 EST  -99.99 -99.99    9  199   10 -99.9 -99.9 -999.9 -9.9 -9.999 -99.9 -99.99 -9.99
2019/11/21 22:24 EST  -99.99 -99.99    8  201   10 -99.9 -99.9 -999.9 -9.9 -9.999 -99.9 -99.99 -9.99
2019/11/21 22:30 EST  -99.99 -99.99    8  199   10 -99.9 -99.9 -999.9 -9.9 -9.999 -99.9 -99.99 -9.99
2019/11/21 22:36 EST  -99.99 -99.99   10  203   12 -99.9 -99.9 -999.9 -9.9 -9.999 -99.9 -99.99 -9.99
2019/11/21 22:42 EST  -99.99 -99.99    9  196   11 -99.9 -99.9 -999.9 -9.9 -9.999 -99.9 -99.99 -9.99
2019/11/21 22:48 EST  -99.99 -99.99    8  193   11 -99.9 -99.9 -999.9 -9.9 -9.999 -99.9 -99.99 -9.99
2019/11/21 22:54 EST  -99.99 -99.99    7  197   11 -99.9 -99.9 -999.9 -9.9 -9.999 -99.9 -99.99 -9.99
2019/11/21 23:00 EST  -99.99 -99.99    7  197   10 -99.9 -99.9 -999.9 -9.9 -9.999 -99.9 -99.99 -9.99
2019/11/21 23:06 EST  -99.99 -99.99    8  197    9 -99.9 -99.9 -999.9 -9.9 -9.999 -99.9 -99.99 -9.99
2019/11/21 23:12 EST  -99.99 -99.99    7  195   11 -99.9 -99.9 -999.9 -9.9 -9.999 -99.9 -99.99 -9.99
2019/11/21 23:18 EST  -99.99 -99.99    8  194   11 -99.9 -99.9 -999.9 -9.9 -9.999 -99.9 -99.99 -9.99
2019/11/21 23:24 EST  -99.99 -99.99    7  197   12 -99.9 -99.9 -999.9 -9.9 -9.999 -99.9 -99.99 -9.99
2019/11/21 23:30 EST  -99.99 -99.99    9  203   12 -99.9 -99.9 -999.9 -9.9 -9.999 -99.9 -99.99 -9.99
2019/11/21 23:36 EST  -99.99 -99.99    8  203   11 -99.9 -99.9 -999.9 -9.9 -9.999 -99.9 -99.99 -9.99
2019/11/21 23:42 EST  -99.99 -99.99    9  204   11 -99.9 -99.9 -999.9 -9.9 -9.999 -99.9 -99.99 -9.99
2019/11/21 23:48 EST  -99.99 -99.99    9  199   12 -99.9 -99.9 -999.9 -9.9 -9.999 -99.9 -99.99 -9.99
2019/11/21 23:54 EST  -99.99 -99.99   11  199   14 -99.9 -99.9 -999.9 -9.9 -9.999 -99.9 -99.99 -9.99
2019/11/22 00:00 EST  -99.99 -99.99    9  195   13 -99.9 -99.9 -999.9 -9.9 -9.999 -99.9 -99.99 -9.99
2019/11/22 00:06 EST  -99.99 -99.99   10  191   12 -99.9 -99.9 -999.9 -9.9 -9.999 -99.9 -99.99 -9.99
2019/11/22 00:12 EST  -99.99 -99.99   10  195   12 -99.9 -99.9 -999.9 -9.9 -9.999 -99.9 -99.99 -9.99
2019/11/22 00:18 EST  -99.99 -99.99    8  201   11 -99.9 -99.9 -999.9 -9.9 -9.999 -99.9 -99.99 -9.99
2019/11/22 00:24 EST  -99.99 -99.99    8  199   10 -99.9 -99.9 -999.9 -9.9 -9.999 -99.9 -99.99 -9.99
2019/11/22 00:30 EST  -99.99 -99.99    6  203    9 -99.9 -99.9 -999.9 -9.9 -9.999 -99.9 -99.99 -9.99
2019/11/22 00:36 EST  -99.99 -99.99    8  210   10 -99.9 -99.9 -999.9 -9.9 -9.999 -99.9 -99.99 -9.99
2019/11/22 00:42 EST  -99.99 -99.99   10  210   11 -99.9 -99.9 -999.9 -9.9 -9.999 -99.9 -99.99 -9.99
2019/11/22 00:48 EST  -99.99 -99.99   10  214   12 -99.9 -99.9 -999.9 -9.9 -9.999 -99.9 -99.99 -9.99
2019/11/22 00:54 EST  -99.99 -99.99   10  216   14 -99.9 -99.9 -999.9 -9.9 -9.999 -99.9 -99.99 -9.99
2019/11/22 01:00 EST  -99.99 -99.99   10  222   14 -99.9 -99.9 -999.9 -9.9 -9.999 -99.9 -99.99 -9.99
2019/11/22 01:06 EST  -99.99 -99.99    9  227   14 -99.9 -99.9 -999.9 -9.9 -9.999 -99.9 -99.99 -9.99
2019/11/22 01:12 EST  -99.99 -99.99   11  226   14 -99.9 -99.9 -999.9 -9.9 -9.999 -99.9 -99.99 -9.99
2019/11/22 01:18 EST  -99.99 -99.99   12  225   14 -99.9 -99.9 -999.9 -9.9 -9.999 -99.9 -99.99 -9.99
2019/11/22 01:24 EST  -99.99 -99.99   12  228   14 -99.9 -99.9 -999.9 -9.9 -9.999 -99.9 -99.99 -9.99
2019/11/22 01:30 EST  -99.99 -99.99   13  225   17 -99.9 -99.9 -999.9 -9.9 -9.999 -99.9 -99.99 -9.99
2019/11/22 01:36 EST  -99.99 -99.99   14  223   17 -99.9 -99.9 -999.9 -9.9 -9.999 -99.9 -99.99 -9.99
2019/11/22 01:42 EST  -99.99 -99.99   13  222   17 -99.9 -99.9 -999.9 -9.9 -9.999 -99.9 -99.99 -9.99
2019/11/22 01:48 EST  -99.99 -99.99   17  225   19 -99.9 -99.9 -999.9 -9.9 -9.999 -99.9 -99.99 -9.99
2019/11/22 01:54 EST  -99.99 -99.99   13  228   18 -99.9 -99.9 -999.9 -9.9 -9.999 -99.9 -99.99 -9.99
2019/11/22 02:00 EST  -99.99 -99.99   14  225   18 -99.9 -99.9 -999.9 -9.9 -9.999 -99.9 -99.99 -9.99
2019/11/22 02:06 EST  -99.99 -99.99   13  232   17 -99.9 -99.9 -999.9 -9.9 -9.999 -99.9 -99.99 -9.99
2019/11/22 02:12 EST  -99.99 -99.99   12  233   16 -99.9 -99.9 -999.9 -9.9 -9.999 -99.9 -99.99 -9.99
2019/11/22 02:18 EST  -99.99 -99.99   13  233   18 -99.9 -99.9 -999.9 -9.9 -9.999 -99.9 -99.99 -9.99
2019/11/22 02:24 EST  -99.99 -99.99    9  240   14 -99.9 -99.9 -999.9 -9.9 -9.999 -99.9 -99.99 -9.99
2019/11/22 02:30 EST  -99.99 -99.99    9  233   14 -99.9 -99.9 -999.9 -9.9 -9.999 -99.9 -99.99 -9.99
2019/11/22 02:36 EST  -99.99 -99.99   11  231   15 -99.9 -99.9 -999.9 -9.9 -9.999 -99.9 -99.99 -9.99
2019/11/22 02:42 EST  -99.99 -99.99   11  235   14 -99.9 -99.9 -999.9 -9.9 -9.999 -99.9 -99.99 -9.99
2019/11/22 02:48 EST  -99.99 -99.99   11  231   17 -99.9 -99.9 -999.9 -9.9 -9.999 -99.9 -99.99 -9.99
2019/11/22 02:54 EST  -99.99 -99.99   10  228   14 -99.9 -99.9 -999.9 -9.9 -9.999 -99.9 -99.99 -9.99
2019/11/22 03:00 EST  -99.99 -99.99 -999 -999 -999 -99.9 -99.9 -999.9 -9.9 -9.999 -99.9 -99.99 -9.99
2019/11/22 03:06 EST  -99.99 -99.99   11  230   14 -99.9 -99.9 -999.9 -9.9 -9.999 -99.9 -99.99 -9.99
2019/11/22 03:12 EST  -99.99 -99.99    9  235   13 -99.9 -99.9 -999.9 -9.9 -9.999 -99.9 -99.99 -9.99
2019/11/22 03:18 EST  -99.99 -99.99   10  232   13 -99.9 -99.9 -999.9 -9.9 -9.999 -99.9 -99.99 -9.99
2019/11/22 03:24 EST  -99.99 -99.99   10  233   16 -99.9 -99.9 -999.9 -9.9 -9.999 -99.9 -99.99 -9.99
2019/11/22 03:30 EST  -99.99 -99.99    8  230   11 -99.9 -99.9 -999.9 -9.9 -9.999 -99.9 -99.99 -9.99
2019/11/22 03:36 EST  -99.99 -99.99    9  237   12 -99.9 -99.9 -999.9 -9.9 -9.999 -99.9 -99.99 -9.99
2019/11/22 03:42 EST  -99.99 -99.99    5  242   13 -99.9 -99.9 -999.9 -9.9 -9.999 -99.9 -99.99 -9.99
2019/11/22 03:48 EST  -99.99 -99.99    9  235   12 -99.9 -99.9 -999.9 -9.9 -9.999 -99.9 -99.99 -9.99
2019/11/22 03:54 EST  -99.99 -99.99    6  242   12 -99.9 -99.9 -999.9 -9.9 -9.999 -99.9 -99.99 -9.99
2019/11/22 04:00 EST  -99.99 -99.99    6  244   11 -99.9 -99.9 -999.9 -9.9 -9.999 -99.9 -99.99 -9.99
2019/11/22 04:06 EST  -99.99 -99.99    5  248    8 -99.9 -99.9 -999.9 -9.9 -9.999 -99.9 -99.99 -9.99
2019/11/22 04:12 EST  -99.99 -99.99    3  248    9 -99.9 -99.9 -999.9 -9.9 -9.999 -99.9 -99.99 -9.99
2019/11/22 04:18 EST  -99.99 -99.99    4  246   10 -99.9 -99.9 -999.9 -9.9 -9.999 -99.9 -99.99 -9.99
2019/11/22 04:24 EST  -99.99 -99.99    4  254    6 -99.9 -99.9 -999.9 -9.9 -9.999 -99.9 -99.99 -9.99
2019/11/22 04:30 EST  -99.99 -99.99    5  248    8 -99.9 -99.9 -999.9 -9.9 -9.999 -99.9 -99.99 -9.99
2019/11/22 04:36 EST  -99.99 -99.99    6  243   13 -99.9 -99.9 -999.9 -9.9 -9.999 -99.9 -99.99 -9.99
2019/11/22 04:42 EST  -99.99 -99.99    4  250   10 -99.9 -99.9 -999.9 -9.9 -9.999 -99.9 -99.99 -9.99
2019/11/22 04:48 EST  -99.99 -99.99    6  239    9 -99.9 -99.9 -999.9 -9.9 -9.999 -99.9 -99.99 -9.99
2019/11/22 04:54 EST  -99.99 -99.99    4  250    8 -99.9 -99.9 -999.9 -9.9 -9.999 -99.9 -99.99 -9.99
2019/11/22 05:00 EST  -99.99 -99.99    6  240   11 -99.9 -99.9 -999.9 -9.9 -9.999 -99.9 -99.99 -9.99
2019/11/22 05:06 EST  -99.99 -99.99    8  239   12 -99.9 -99.9 -999.9 -9.9 -9.999 -99.9 -99.99 -9.99
2019/11/22 05:12 EST  -99.99 -99.99   11  237   14 -99.9 -99.9 -999.9 -9.9 -9.999 -99.9 -99.99 -9.99
2019/11/22 05:18 EST  -99.99 -99.99   10  237   13 -99.9 -99.9 -999.9 -9.9 -9.999 -99.9 -99.99 -9.99
2019/11/22 05:24 EST  -99.99 -99.99    8  240   12 -99.9 -99.9 -999.9 -9.9 -9.999 -99.9 -99.99 -9.99
2019/11/22 05:30 EST  -99.99 -99.99    5  242    9 -99.9 -99.9 -999.9 -9.9 -9.999 -99.9 -99.99 -9.99
2019/11/22 05:36 EST  -99.99 -99.99    6  242    9 -99.9 -99.9 -999.9 -9.9 -9.999 -99.9 -99.99 -9.99
2019/11/22 05:42 EST  -99.99 -99.99    5  245   11 -99.9 -99.9 -999.9 -9.9 -9.999 -99.9 -99.99 -9.99
2019/11/22 05:48 EST  -99.99 -99.99    5  249    8 -99.9 -99.9 -999.9 -9.9 -9.999 -99.9 -99.99 -9.99
2019/11/22 05:54 EST  -99.99 -99.99    6  256   12 -99.9 -99.9 -999.9 -9.9 -9.999 -99.9 -99.99 -9.99
2019/11/22 06:00 EST  -99.99 -99.99    6  250   10 -99.9 -99.9 -999.9 -9.9 -9.999 -99.9 -99.99 -9.99
2019/11/22 06:06 EST  -99.99 -99.99    4  245    7 -99.9 -99.9 -999.9 -9.9 -9.999 -99.9 -99.99 -9.99
2019/11/22 06:12 EST  -99.99 -99.99    5  238    7 -99.9 -99.9 -999.9 -9.9 -9.999 -99.9 -99.99 -9.99
2019/11/22 06:18 EST  -99.99 -99.99    7  230   10 -99.9 -99.9 -999.9 -9.9 -9.999 -99.9 -99.99 -9.99
2019/11/22 06:24 EST  -99.99 -99.99    5  239   10 -99.9 -99.9 -999.9 -9.9 -9.999 -99.9 -99.99 -9.99
2019/11/22 06:30 EST  -99.99 -99.99    4  245    9 -99.9 -99.9 -999.9 -9.9 -9.999 -99.9 -99.99 -9.99
2019/11/22 06:36 EST  -99.99 -99.99    7  256   10 -99.9 -99.9 -999.9 -9.9 -9.999 -99.9 -99.99 -9.99
2019/11/22 06:42 EST  -99.99 -99.99    5  257    8 -99.9 -99.9 -999.9 -9.9 -9.999 -99.9 -99.99 -9.99
2019/11/22 06:48 EST  -99.99 -99.99    8  259   10 -99.9 -99.9 -999.9 -9.9 -9.999 -99.9 -99.99 -9.99
2019/11/22 06:54 EST  -99.99 -99.99    7  263   11 -99.9 -99.9 -999.9 -9.9 -9.999 -99.9 -99.99 -9.99
2019/11/22 07:00 EST  -99.99 -99.99    4  271   10 -99.9 -99.9 -999.9 -9.9 -9.999 -99.9 -99.99 -9.99
2019/11/22 07:06 EST  -99.99 -99.99    8  258   10 -99.9 -99.9 -999.9 -9.9 -9.999 -99.9 -99.99 -9.99
2019/11/22 07:12 EST  -99.99 -99.99    7  260   11 -99.9 -99.9 -999.9 -9.9 -9.999 -99.9 -99.99 -9.99
2019/11/22 07:18 EST  -99.99 -99.99    6  251   10 -99.9 -99.9 -999.9 -9.9 -9.999 -99.9 -99.99 -9.99
2019/11/22 07:24 EST  -99.99 -99.99    5  248    9 -99.9 -99.9 -999.9 -9.9 -9.999 -99.9 -99.99 -9.99
2019/11/22 07:30 EST  -99.99 -99.99    6  239    9 -99.9 -99.9 -999.9 -9.9 -9.999 -99.9 -99.99 -9.99
2019/11/22 07:36 EST  -99.99 -99.99    7  225    9 -99.9 -99.9 -999.9 -9.9 -9.999 -99.9 -99.99 -9.99
2019/11/22 07:42 EST  -99.99 -99.99    5  245    8 -99.9 -99.9 -999.9 -9.9 -9.999 -99.9 -99.99 -9.99
2019/11/22 07:48 EST  -99.99 -99.99    9  257   11 -99.9 -99.9 -999.9 -9.9 -9.999 -99.9 -99.99 -9.99
2019/11/22 07:54 EST  -99.99 -99.99 -999 -999 -999 -99.9 -99.9 -999.9 -9.9 -9.999 -99.9 -99.99 -9.99